User Preferences

Timezone
Units
Lat/Lon format
Defaults

Geo and time bounds

171 - VIRGINIA BEACH OFFSHORE, VA   Notice:06/13/2024 Replaced buoy Mobile View
1488 records
Date
(UTC)
Hs
(ft)
Tp
(s)
Dp
(deg)
Ta
(s)
SST
(F)
Air temp
(F)
Current sp
(kt)
Current dir
(deg)
2023-03-31 23:30 5.12 5.56 147 4.78 50.5 55.8 0.39 67.0
2023-03-31 23:00 5.02 5.00 153 4.68 50.5 55.6 0.37 75.0
2023-03-31 22:30 4.63 5.00 140 4.64 50.5 55.9 0.41 75.0
2023-03-31 22:00 4.49 5.00 145 4.67 50.5 55.2 0.27 80.0
2023-03-31 21:30 4.10 4.76 148 4.50 50.5 55.6 0.31 54.0
2023-03-31 21:00 4.33 4.55 157 4.53 50.5 55.6 0.33 64.0
2023-03-31 20:30 4.30 4.35 167 4.41 50.7 55.2 0.27 65.0
2023-03-31 20:00 3.97 4.35 161 4.39 50.7 55.0 0.29 49.0
2023-03-31 19:30 3.74 4.00 164 4.40 50.7 55.0 0.25 32.0
2023-03-31 19:00 3.38 14.29 75 4.35 50.7 55.2 0.21 28.0
2023-03-31 18:30 3.12 15.38 78 4.44 50.7 54.9 0.12 52.0
2023-03-31 18:00 3.25 15.38 80 4.61 50.7 55.2 0.12 57.0
2023-03-31 17:30 3.15 14.29 75 4.86 50.7 55.0 0.08 61.0
2023-03-31 17:00 3.22 13.33 84 4.97 50.5 55.0 0.06 115.0
2023-03-31 16:30 3.12 13.33 85 5.10 50.5 54.5 0.08 92.0
2023-03-31 16:00 2.85 14.29 78 5.32 50.5 54.0 0.04 154.0
2023-03-31 15:30 2.69 14.29 81 5.49 50.5 54.5 0.10 140.0
2023-03-31 15:00 2.69 13.33 83 5.74 50.4 54.5 0.14 162.0
2023-03-31 14:30 2.85 11.76 71 6.01 50.4 54.1 0.17 147.0
2023-03-31 14:00 2.72 14.29 86 5.92 50.4 54.1 0.19 161.0
2023-03-31 13:30 2.76 14.29 83 6.28 50.4 53.8 0.17 145.0
2023-03-31 13:00 2.95 12.50 76 6.06 50.2 53.8 0.19 135.0
2023-03-31 12:30 2.82 15.38 84 6.13 50.2 53.6 0.31 167.0
2023-03-31 12:00 2.82 13.33 79 5.83 50.2 53.2 0.33 152.0
2023-03-31 11:30 2.89 12.50 77 5.94 50.2 52.2 0.27 143.0
2023-03-31 11:00 2.95 12.50 81 5.75 50.2 51.3 0.25 152.0
2023-03-31 10:30 2.82 13.33 79 5.75 50.4 51.1 0.21 135.0
2023-03-31 10:00 2.89 12.50 80 5.80 50.4 50.9 0.17 141.0
2023-03-31 09:30 2.85 13.33 83 5.69 50.4 50.5 0.16 158.0
2023-03-31 09:00 2.82 13.33 85 5.83 50.4 50.5 0.08 134.0
2023-03-31 08:30 3.02 13.33 85 5.61 50.4 50.4 0.08 60.0
2023-03-31 08:00 3.02 13.33 81 5.43 50.4 50.2 0.10 51.0
2023-03-31 07:30 2.92 14.29 82 5.43 50.4 50.0 0.08 339.0
2023-03-31 07:00 2.89 13.33 83 5.24 50.4 49.8 0.08 333.0
2023-03-31 06:30 3.15 13.33 71 5.39 50.4 49.6 0.14 296.0
2023-03-31 06:00 3.12 14.29 76 5.56 50.5 49.1 0.10 276.0
2023-03-31 05:30 3.08 13.33 80 5.59 50.4 48.7 0.14 300.0
2023-03-31 05:00 3.18 7.14 42 5.53 50.5 48.6 0.17 286.0
2023-03-31 04:30 3.22 12.50 80 5.65 50.5 48.0 0.19 275.0
2023-03-31 04:00 3.41 12.50 80 6.00 50.5 47.7 0.17 274.0
2023-03-31 03:30 3.44 7.14 32 5.97 50.4 47.3 0.29 274.0
2023-03-31 03:00 3.51 7.14 28 6.06 50.4 47.1 0.31 265.0
2023-03-31 02:30 3.71 7.69 40 6.30 50.4 46.6 0.33 263.0
2023-03-31 02:00 3.67 7.69 32 6.27 50.2 46.4 0.35 262.0
2023-03-31 01:30 3.71 7.69 39 6.03 50.2 46.0 0.35 249.0
2023-03-31 01:00 3.41 6.67 27 5.76 50.4 45.1 0.39 244.0
2023-03-31 00:30 3.58 5.88 22 5.63 50.4 45.0 0.47 237.0
2023-03-31 00:00 3.61 6.67 22 5.59 50.4 44.6 0.47 239.0
2023-03-30 23:30 3.64 6.25 15 5.50 50.5 44.4 0.54 230.0
2023-03-30 23:00 3.90 6.67 22 5.38 50.4 44.2 0.64 225.0
2023-03-30 22:30 4.07 5.88 11 5.18 50.5 44.1 0.68 229.0
2023-03-30 22:00 4.17 6.25 10 5.19 50.5 44.4 0.80 221.0
2023-03-30 21:30 4.30 6.25 16 5.11 50.5 44.4 0.74 217.0
2023-03-30 21:00 4.59 6.25 9 5.18 50.7 44.2 0.89 218.0
2023-03-30 20:30 4.76 6.25 15 5.24 50.7 44.2 0.97 214.0
2023-03-30 20:00 4.72 6.25 15 5.07 50.7 44.2 1.05 208.0
2023-03-30 19:30 5.31 6.67 15 5.15 50.7 44.1 0.97 206.0
2023-03-30 19:00 5.25 6.25 9 5.08 50.9 43.9 0.95 205.0
2023-03-30 18:30 5.87 5.88 6 5.16 50.9 44.2 0.95 202.0
2023-03-30 18:00 5.61 5.88 12 4.96 50.7 44.4 0.89 202.0
2023-03-30 17:30 5.87 5.56 10 4.98 50.7 44.6 0.97 202.0
2023-03-30 17:00 6.00 5.88 7 5.04 50.5 44.8 1.03 196.0
2023-03-30 16:30 5.48 5.26 14 4.85 50.4 45.1 0.99 195.0
2023-03-30 16:00 5.71 5.56 10 4.79 50.4 45.1 0.99 191.0
2023-03-30 15:30 6.43 5.26 5 4.92 50.4 45.5 0.91 190.0
2023-03-30 15:00 6.46 5.26 6 4.92 50.4 46.2 0.87 192.0
2023-03-30 14:30 6.27 5.26 4 4.82 50.4 47.1 0.86 183.0
2023-03-30 14:00 6.50 5.26 6 4.77 50.4 47.3 0.97 177.0
2023-03-30 13:30 6.00 4.76 6 4.56 50.4 47.5 0.87 173.0
2023-03-30 13:00 5.15 4.35 4 4.44 50.4 48.0 0.91 170.0
2023-03-30 12:30 4.53 8.33 82 4.16 50.4 48.6 0.87 163.0
2023-03-30 12:00 4.00 3.23 341 4.07 50.5 49.3 0.76 161.0
2023-03-30 11:30 3.61 13.33 75 4.31 50.4 49.1 0.74 141.0
2023-03-30 11:00 3.71 8.33 92 4.71 50.4 50.4 0.72 125.0
2023-03-30 10:30 3.54 13.33 86 4.96 50.5 50.7 0.54 113.0
2023-03-30 10:00 3.58 9.09 82 4.77 50.4 50.2 0.49 114.0
2023-03-30 09:30 3.58 9.09 82 4.73 50.4 50.2 0.41 104.0
2023-03-30 09:00 3.64 12.50 76 5.00 50.4 50.4 0.37 94.0
2023-03-30 08:30 3.64 12.50 79 5.05 50.5 50.4 0.37 77.0
2023-03-30 08:00 3.38 8.33 82 5.27 50.5 50.2 0.27 72.0
2023-03-30 07:30 3.41 13.33 74 5.55 50.5 50.2 0.27 88.0
2023-03-30 07:00 3.61 9.09 84 5.61 50.5 50.2 0.19 29.0
2023-03-30 06:30 3.48 9.09 85 5.77 50.5 50.0 0.10 29.0
2023-03-30 06:00 3.71 7.69 72 5.91 50.5 49.8 0.10 322.0
2023-03-30 05:30 3.77 8.33 83 6.05 50.5 49.8 0.08 317.0
2023-03-30 05:00 4.04 9.09 87 6.23 50.5 49.6 0.16 293.0
2023-03-30 04:30 4.04 8.33 79 6.53 50.5 49.5 0.17 273.0
2023-03-30 04:00 3.81 8.33 79 6.38 50.7 49.3 0.23 266.0
2023-03-30 03:30 3.87 8.33 80 6.49 50.7 49.1 0.21 249.0
2023-03-30 03:00 4.13 9.09 82 6.88 50.5 48.9 0.25 245.0
2023-03-30 02:30 3.81 9.09 87 6.72 50.7 48.7 0.41 255.0
2023-03-30 02:00 4.33 8.33 83 6.98 50.5 48.4 0.43 245.0
2023-03-30 01:30 4.00 9.09 81 6.50 50.7 48.2 0.47 231.0
2023-03-30 01:00 4.13 8.33 82 6.61 50.9 48.2 0.52 225.0
2023-03-30 00:30 4.00 9.09 77 6.39 50.9 47.8 0.64 226.0
2023-03-30 00:00 4.00 8.33 78 6.32 50.9 47.8 0.58 213.0
2023-03-29 23:30 4.13 12.50 75 6.35 50.9 48.0 0.64 210.0
2023-03-29 23:00 3.97 8.33 83 5.96 51.1 48.7 0.74 194.0
2023-03-29 22:30 4.20 7.69 77 5.86 51.1 48.9 0.72 183.0
2023-03-29 22:00 4.30 7.69 81 5.88 51.1 49.1 0.76 191.0
2023-03-29 21:30 4.27 8.33 83 5.59 51.3 49.1 0.76 180.0
2023-03-29 21:00 4.43 8.33 82 5.57 51.1 48.9 0.80 176.0
2023-03-29 20:30 4.53 8.33 88 5.45 51.3 48.9 0.80 178.0
2023-03-29 20:00 4.49 9.09 83 5.25 51.3 48.7 0.86 174.0
2023-03-29 19:30 4.49 8.33 86 5.15 51.3 48.9 0.74 182.0
2023-03-29 19:00 4.53 5.56 61 5.22 51.1 48.9 0.78 183.0
2023-03-29 18:30 4.66 5.88 64 5.02 51.1 49.3 0.68 186.0
2023-03-29 18:00 4.63 5.00 51 5.11 51.1 49.3 0.72 181.0
2023-03-29 17:30 4.27 5.56 58 4.81 51.1 49.3 0.72 184.0
2023-03-29 17:00 4.46 5.26 56 4.93 50.9 49.3 0.62 193.0
2023-03-29 16:30 4.40 12.50 69 4.91 50.9 49.3 0.62 202.0
2023-03-29 16:00 4.33 12.50 71 4.74 50.7 49.3 0.60 191.0
2023-03-29 15:30 4.36 5.26 58 4.69 50.7 49.1 0.52 204.0
2023-03-29 15:00 4.46 12.50 65 4.70 50.7 48.7 0.52 199.0
2023-03-29 14:30 4.46 5.00 48 4.61 50.7 48.9 0.60 196.0
2023-03-29 14:00 4.40 4.55 45 4.43 50.7 48.7 0.58 197.0
2023-03-29 13:30 4.36 5.00 53 4.53 50.7 49.1 0.52 208.0
2023-03-29 13:00 4.33 5.00 48 4.44 50.7 49.6 0.54 216.0
2023-03-29 12:30 4.40 4.76 42 4.55 50.7 49.1 0.54 214.0
2023-03-29 12:00 4.36 5.26 53 4.44 50.7 48.6 0.64 209.0
2023-03-29 11:30 4.33 4.55 50 4.46 50.7 48.4 0.68 213.0
2023-03-29 11:00 4.23 4.55 46 4.47 50.7 48.2 0.58 216.0
2023-03-29 10:30 4.13 4.76 47 4.34 50.7 48.0 0.60 219.0
2023-03-29 10:00 4.23 12.50 74 4.40 50.7 46.4 0.62 208.0
2023-03-29 09:30 4.13 4.76 50 4.45 50.7 0.68 206.0
2023-03-29 09:00 4.07 4.55 48 4.45 50.7 0.66 210.0
2023-03-29 08:30 4.04 4.55 56 4.42 50.7 45.0 0.74 214.0
2023-03-29 08:00 4.10 4.55 45 4.40 50.7 44.6 0.70 218.0
2023-03-29 07:30 4.10 4.55 49 4.53 50.7 46.0 0.72 231.0
2023-03-29 07:00 3.97 4.55 52 4.40 50.9 45.9 0.70 226.0
2023-03-29 06:30 3.94 4.55 46 4.30 50.9 46.2 0.72 230.0
2023-03-29 06:00 4.33 4.55 52 4.29 50.9 46.0 0.84 231.0
2023-03-29 05:30 4.49 4.55 58 4.25 50.9 48.0 0.82 222.0
2023-03-29 05:00 4.40 4.35 51 4.24 50.9 50.4 0.84 230.0
2023-03-29 04:30 4.30 4.55 53 4.19 50.9 50.5 0.84 232.0
2023-03-29 04:00 4.23 4.17 46 4.11 50.9 50.5 0.76 227.0
2023-03-29 03:30 4.07 3.85 52 4.04 51.1 50.5 0.82 229.0
2023-03-29 03:00 3.97 3.85 48 4.12 51.1 50.5 0.82 225.0
2023-03-29 02:30 3.84 3.57 50 4.14 51.1 50.4 0.78 226.0
2023-03-29 02:00 3.81 6.67 33 4.09 51.1 50.4 0.78 215.0
2023-03-29 01:30 3.51 6.67 45 4.17 51.3 50.4 0.74 214.0
2023-03-29 01:00 3.35 6.67 47 4.26 51.3 50.4 0.66 215.0
2023-03-29 00:30 3.41 6.67 45 4.70 51.4 50.2 0.68 211.0
2023-03-29 00:00 3.31 6.25 41 5.20 51.4 50.4 0.68 207.0
2023-03-28 23:30 3.22 6.25 39 5.45 51.6 50.2 0.62 204.0
2023-03-28 23:00 3.15 6.25 35 5.66 51.6 50.0 0.66 201.0
2023-03-28 22:30 3.15 6.67 40 6.08 51.6 50.0 0.60 192.0
2023-03-28 22:00 3.35 6.25 40 5.71 51.8 50.0 0.68 186.0
2023-03-28 21:30 3.15 6.67 42 5.81 51.8 50.0 0.64 185.0
2023-03-28 21:00 3.08 12.50 85 5.75 52.0 50.0 0.66 188.0
2023-03-28 20:30 3.12 6.25 41 5.64 51.8 50.0 0.66 182.0
2023-03-28 20:00 3.15 11.76 79 5.41 52.0 49.6 0.56 185.0
2023-03-28 19:30 3.15 5.88 33 5.43 52.0 49.8 0.60 181.0
2023-03-28 19:00 3.22 6.25 37 5.55 52.0 49.8 0.64 185.0
2023-03-28 18:30 3.08 6.25 46 5.43 52.0 49.5 0.64 183.0
2023-03-28 18:00 2.79 5.88 34 5.14 52.0 49.1 0.62 180.0
2023-03-28 17:30 2.99 5.26 34 5.25 52.0 48.7 0.60 183.0
2023-03-28 17:00 3.02 5.88 34 5.22 52.0 48.6 0.47 181.0
2023-03-28 16:30 3.05 5.26 26 5.06 52.0 48.6 0.43 205.0
2023-03-28 16:00 2.99 5.56 35 4.96 51.8 48.7 0.49 212.0
2023-03-28 15:30 2.95 4.76 23 4.79 51.8 48.7 0.52 221.0
2023-03-28 15:00 3.15 5.00 22 4.86 51.8 46.8 0.58 226.0
2023-03-28 14:30 3.05 5.26 20 4.73 51.8 46.8 0.64 234.0
2023-03-28 14:00 3.41 5.26 19 4.90 52.0 46.4 0.60 217.0
2023-03-28 13:30 3.48 5.00 23 4.77 52.0 46.2 0.68 221.0
2023-03-28 13:00 3.58 5.26 43 4.82 52.0 46.8 0.68 220.0
2023-03-28 12:30 3.67 5.00 25 4.69 52.0 46.9 0.72 220.0
2023-03-28 12:00 3.77 5.00 26 4.60 51.8 47.7 0.58 213.0
2023-03-28 11:30 3.97 5.00 27 4.75 52.2 47.8 0.60 200.0
2023-03-28 11:00 3.94 5.00 39 4.58 52.2 48.2 0.56 195.0
2023-03-28 10:30 4.10 4.35 35 4.47 52.2 48.4 0.62 197.0
2023-03-28 10:00 4.07 4.35 44 4.41 52.2 48.7 0.62 195.0
2023-03-28 09:30 3.94 4.00 42 4.27 52.2 48.9 0.68 184.0
2023-03-28 09:00 3.81 3.85 43 4.39 52.2 48.6 0.62 192.0
2023-03-28 08:30 3.90 3.57 34 4.45 52.0 49.1 0.60 189.0
2023-03-28 08:00 3.81 12.50 78 4.41 52.0 49.8 0.66 176.0
2023-03-28 07:30 3.61 5.56 153 4.51 51.8 49.5 0.62 182.0
2023-03-28 07:00 3.51 11.76 75 4.70 51.8 50.9 0.58 184.0
2023-03-28 06:30 3.58 5.26 163 5.08 51.6 51.6 0.60 182.0
2023-03-28 06:00 3.44 10.53 77 5.33 51.6 52.9 0.56 190.0
2023-03-28 05:30 3.61 5.88 148 5.75 51.6 54.0 0.68 170.0
2023-03-28 05:00 3.38 5.56 142 5.81 51.4 54.3 0.66 177.0
2023-03-28 04:30 3.48 5.56 153 6.16 51.4 54.3 0.60 169.0
2023-03-28 04:00 3.48 5.56 138 6.11 51.6 54.3 0.62 170.0
2023-03-28 03:30 3.38 9.88 91 5.82 51.6 54.5 0.51 176.0
2023-03-28 03:00 3.28 11.11 75 5.73 51.6 57.6 0.45 177.0
2023-03-28 02:30 3.51 9.09 100 5.84 51.8 55.2 0.27 157.0
2023-03-28 02:00 3.58 6.25 124 5.48 51.8 54.9 0.33 165.0
2023-03-28 01:30 3.87 6.25 123 5.48 51.8 54.9 0.25 147.0
2023-03-28 01:00 4.13 6.25 125 5.66 51.8 55.2 0.25 146.0
2023-03-28 00:30 4.07 6.25 122 5.50 51.8 55.6 0.25 124.0
2023-03-28 00:00 3.97 6.67 115 5.23 51.8 55.4 0.21 133.0
2023-03-27 23:30 4.17 7.14 100 5.23 51.8 55.8 0.21 130.0
2023-03-27 23:00 4.40 6.67 112 5.23 51.8 55.8 0.29 128.0
2023-03-27 22:30 4.53 6.67 107 5.33 52.0 55.6 0.33 128.0
2023-03-27 22:00 4.46 6.25 110 5.26 52.0 56.7 0.33 115.0
2023-03-27 21:30 4.43 12.50 84 5.36 52.2 57.2 0.29 121.0
2023-03-27 21:00 4.40 6.67 94 5.18 52.3 57.0 0.31 112.0
2023-03-27 20:30 4.27 5.88 106 5.38 52.5 56.8 0.27 101.0
2023-03-27 20:00 4.13 5.88 101 5.23 52.5 56.8 0.23 120.0
2023-03-27 19:30 4.07 5.56 99 5.12 52.3 55.8 0.25 118.0
2023-03-27 19:00 4.07 5.26 99 5.01 52.3 56.3 0.21 113.0
2023-03-27 18:30 3.94 5.00 106 5.06 52.3 56.3 0.12 170.0
2023-03-27 18:00 3.25 4.76 115 5.08 52.2 55.9 0.16 163.0
2023-03-27 17:30 2.89 13.33 81 5.19 52.2 56.7 0.23 160.0
2023-03-27 17:00 3.02 10.53 72 5.18 52.2 56.5 0.10 182.0
2023-03-27 16:30 2.85 8.33 117 5.31 52.2 57.0 0.16 251.0
2023-03-27 16:00 2.85 9.09 116 5.83 52.2 55.6 0.19 224.0
2023-03-27 15:30 2.76 9.88 88 5.91 52.0 55.8 0.31 265.0
2023-03-27 15:00 2.79 15.38 83 6.07 52.0 54.5 0.35 252.0
2023-03-27 14:30 2.66 13.33 78 5.83 52.0 54.7 0.47 254.0
2023-03-27 14:00 2.76 14.29 78 5.97 52.0 54.5 0.45 254.0
2023-03-27 13:30 2.53 8.33 123 5.46 52.0 54.0 0.47 249.0
2023-03-27 13:00 2.76 9.88 105 5.62 52.0 53.6 0.39 231.0
2023-03-27 12:30 2.76 6.67 162 5.52 51.8 53.1 0.39 219.0
2023-03-27 12:00 2.76 7.14 143 6.04 51.8 52.5 0.43 214.0
2023-03-27 11:30 2.66 9.88 94 5.90 51.8 52.7 0.35 213.0
2023-03-27 11:00 2.99 7.69 138 6.22 51.8 53.4 0.41 199.0
2023-03-27 10:30 2.79 7.69 145 6.29 51.8 54.3 0.49 196.0
2023-03-27 10:00 2.82 7.69 140 6.41 51.8 54.3 0.54 191.0
2023-03-27 09:30 2.76 7.14 144 6.66 52.0 53.8 0.45 188.0
2023-03-27 09:00 2.62 7.14 155 6.81 52.0 53.8 0.47 189.0
2023-03-27 08:30 2.66 6.25 159 6.83 52.0 53.4 0.49 177.0
2023-03-27 08:00 2.62 6.67 163 7.05 52.0 53.4 0.49 179.0
2023-03-27 07:30 2.66 6.67 166 7.13 52.0 53.2 0.49 167.0
2023-03-27 07:00 2.59 9.09 117 6.92 52.0 53.1 0.51 158.0
2023-03-27 06:30 2.69 6.67 157 6.92 52.0 52.9 0.41 162.0
2023-03-27 06:00 2.59 7.14 154 6.87 52.0 53.1 0.39 178.0
2023-03-27 05:30 2.66 8.33 126 6.87 52.0 52.5 0.37 182.0
2023-03-27 05:00 2.76 7.69 150 6.95 52.0 52.2 0.31 197.0
2023-03-27 04:30 2.69 6.67 171 6.69 52.0 52.2 0.31 215.0
2023-03-27 04:00 2.66 7.69 136 6.69 51.8 52.2 0.33 208.0
2023-03-27 03:30 2.69 7.14 154 6.38 51.8 52.2 0.37 203.0
2023-03-27 03:00 2.69 7.14 154 6.32 51.8 52.2 0.41 213.0
2023-03-27 02:30 2.95 7.69 147 6.48 51.8 52.3 0.39 220.0
2023-03-27 02:00 3.02 7.14 156 6.45 51.8 52.3 0.47 222.0
2023-03-27 01:30 3.05 7.14 154 6.23 51.6 52.2 0.51 238.0
2023-03-27 01:00 2.99 8.33 147 6.32 51.4 52.5 0.54 237.0
2023-03-27 00:30 3.18 7.69 153 6.25 51.4 52.2 0.54 215.0
2023-03-27 00:00 3.25 6.67 166 6.01 51.4 52.2 0.56 217.0
2023-03-26 23:30 3.25 7.14 165 5.98 51.6 52.5 0.49 206.0
2023-03-26 23:00 3.35 7.69 159 5.98 51.6 52.7 0.66 225.0
2023-03-26 22:30 3.22 7.69 163 5.81 51.4 52.7 0.68 223.0
2023-03-26 22:00 3.64 6.25 184 5.86 51.6 52.7 0.66 219.0
2023-03-26 21:30 3.87 6.25 182 5.89 51.1 52.5 0.72 202.0
2023-03-26 21:00 4.13 6.67 178 5.93 51.3 52.5 0.74 202.0
2023-03-26 20:30 4.13 6.67 175 5.87 50.9 52.2 0.84 196.0
2023-03-26 20:00 4.40 6.67 173 5.87 50.9 52.0 0.78 191.0
2023-03-26 19:30 4.07 7.14 176 5.92 51.1 51.8 0.76 192.0
2023-03-26 19:00 3.84 6.67 175 5.84 51.1 51.8 0.84 190.0
2023-03-26 18:30 4.33 6.67 179 5.86 51.1 0.91 192.0
2023-03-26 18:00 4.66 6.67 178 5.94 51.1 50.9 0.93 182.0
2023-03-26 17:30 4.53 7.14 174 6.06 51.3 0.93 183.0
2023-03-26 17:00 4.76 7.14 180 6.14 51.3 53.2 0.95 185.0
2023-03-26 16:30 4.76 7.14 179 6.18 51.6 53.4 0.80 185.0
2023-03-26 16:00 5.02 7.14 178 6.28 51.3 0.89 181.0
2023-03-26 15:30 5.15 7.14 174 6.29 50.9 52.0 0.80 183.0
2023-03-26 15:00 5.28 7.14 178 6.26 50.7 53.1 0.72 183.0
2023-03-26 14:30 5.22 7.14 178 6.19 50.5 53.6 0.64 188.0
2023-03-26 14:00 5.12 7.14 178 6.16 50.4 53.2 0.60 188.0
2023-03-26 13:30 5.09 7.69 170 6.02 50.2 52.7 0.56 199.0
2023-03-26 13:00 4.99 7.14 170 5.97 50.0 52.5 0.49 182.0
2023-03-26 12:30 5.28 7.14 176 6.17 50.0 53.6 0.45 181.0
2023-03-26 12:00 5.28 7.14 170 5.97 50.0 53.1 0.45 180.0
2023-03-26 11:30 5.38 7.14 171 5.96 50.2 52.5 0.49 176.0
2023-03-26 11:00 5.61 7.14 166 6.01 50.2 53.1 0.47 174.0
2023-03-26 10:30 5.54 7.14 168 5.89 50.0 53.6 0.47 162.0
2023-03-26 10:00 5.28 7.69 165 5.77 50.0 54.0 0.58 160.0
2023-03-26 09:30 5.22 7.14 174 5.67 50.0 54.9 0.64 145.0
2023-03-26 09:00 5.61 6.67 165 5.82 50.0 53.1 0.51 154.0
2023-03-26 08:30 5.51 7.14 165 5.66 50.2 53.6 0.66 146.0
2023-03-26 08:00 5.74 7.14 165 5.63 50.0 54.1 0.60 148.0
2023-03-26 07:30 5.64 7.14 161 5.62 50.0 54.3 0.62 141.0
2023-03-26 07:00 5.51 7.14 160 5.43 50.2 54.0 0.64 134.0
2023-03-26 06:30 5.58 7.14 165 5.62 50.4 54.0 0.56 145.0
2023-03-26 06:00 5.94 7.14 172 5.68 50.4 53.4 0.47 149.0
2023-03-26 05:30 5.68 7.14 164 5.71 50.4 53.2 0.54 132.0
2023-03-26 05:00 5.68 7.14 166 5.63 50.5 53.6 0.47 135.0
2023-03-26 04:30 5.97 7.14 163 5.73 50.5 53.8 0.45 139.0
2023-03-26 04:00 6.00 7.14 167 5.63 50.5 53.8 0.43 132.0
2023-03-26 03:30 5.97 7.14 165 5.50 50.7 53.8 0.31 136.0
2023-03-26 03:00 5.97 7.14 168 5.46 50.7 54.3 0.31 137.0
2023-03-26 02:30 6.04 6.67 167 5.37 50.7 54.7 0.29 141.0
2023-03-26 02:00 6.10 7.14 163 5.47 50.7 55.0 0.27 152.0
2023-03-26 01:30 5.51 8.33 160 5.29 50.7 55.9 0.33 148.0
2023-03-26 01:00 5.51 7.14 161 5.28 50.7 55.0 0.33 140.0
2023-03-26 00:30 5.68 5.56 178 5.17 50.7 55.2 0.37 152.0
2023-03-26 00:00 5.54 6.67 168 5.15 50.7 55.4 0.31 150.0
2023-03-25 23:30 5.41 5.88 173 5.12 50.7 55.4 0.31 146.0
2023-03-25 23:00 5.64 7.14 174 5.22 50.9 55.8 0.39 150.0
2023-03-25 22:30 5.77 7.14 172 5.18 50.9 56.1 0.35 139.0
2023-03-25 22:00 5.77 5.56 173 5.05 50.9 56.5 0.47 131.0
2023-03-25 21:30 5.84 5.26 175 5.14 50.9 0.49 132.0
2023-03-25 21:00 5.77 7.69 163 5.01 50.9 0.45 121.0
2023-03-25 20:30 5.25 7.14 169 5.01 50.9 57.2 0.56 123.0
2023-03-25 20:00 4.95 7.69 162 5.19 51.1 56.8 0.74 120.0
2023-03-25 19:30 4.53 5.88 161 4.99 51.1 57.4 0.64 124.0
2023-03-25 19:00 4.82 7.69 160 5.17 51.1 57.0 0.60 128.0
2023-03-25 18:30 4.66 7.69 154 5.18 50.9 56.5 0.66 125.0
2023-03-25 18:00 4.40 7.69 154 4.99 50.9 56.7 0.66 122.0
2023-03-25 17:30 4.40 7.14 166 4.99 50.9 56.1 0.64 115.0
2023-03-25 17:00 4.40 7.69 160 5.04 50.9 56.3 0.56 114.0
2023-03-25 16:30 4.27 7.14 158 5.02 50.9 55.8 0.54 123.0
2023-03-25 16:00 4.10 7.14 161 5.07 50.9 55.8 0.51 120.0
2023-03-25 15:30 4.46 7.69 156 5.20 50.7 55.6 0.47 125.0
2023-03-25 15:00 4.20 5.56 106 4.98 50.7 55.2 0.41 120.0
2023-03-25 14:30 3.97 7.14 147 5.02 50.5 54.7 0.35 110.0
2023-03-25 14:00 4.33 5.56 94 5.17 50.5 54.0 0.29 98.0
2023-03-25 13:30 4.33 7.14 163 5.26 50.4 53.6 0.23 125.0
2023-03-25 13:00 4.13 5.26 66 5.22 50.2 53.1 0.12 122.0
2023-03-25 12:30 4.30 5.56 90 5.37 50.0 53.2 0.17 113.0
2023-03-25 12:00 4.23 7.14 158 5.36 50.0 53.1 0.04 119.0
2023-03-25 11:30 4.43 5.88 113 5.26 50.0 52.7 0.02 311.0
2023-03-25 11:00 4.66 5.26 85 5.20 50.0 52.3 0.04 258.0
2023-03-25 10:30 4.69 5.88 123 5.23 50.0 52.5 0.10 263.0
2023-03-25 10:00 4.95 5.88 92 5.26 49.8 52.3 0.16 249.0
2023-03-25 09:30 5.05 5.88 96 5.18 49.8 52.2 0.12 238.0
2023-03-25 09:00 5.18 5.56 78 5.25 49.8 52.3 0.08 232.0
2023-03-25 08:30 5.22 7.69 170 5.18 49.8 52.7 0.17 215.0
2023-03-25 08:00 5.18 5.56 67 5.27 49.6 52.7 0.16 190.0
2023-03-25 07:30 5.64 5.88 101 5.26 49.5 52.3 0.16 169.0
2023-03-25 07:00 5.74 5.88 83 5.35 49.5 52.3 0.10 197.0
2023-03-25 06:30 5.54 5.88 68 5.09 49.5 52.2 0.14 218.0
2023-03-25 06:00 5.64 5.88 52 5.10 49.5 52.3 0.14 211.0
2023-03-25 05:30 5.94 5.26 44 5.08 49.5 52.7 0.17 220.0
2023-03-25 05:00 5.84 5.26 51 4.99 49.5 52.7 0.08 222.0
2023-03-25 04:30 5.77 5.26 43 5.08 49.5 52.9 0.23 237.0
2023-03-25 04:00 5.68 5.26 34 4.95 49.5 52.5 0.27 253.0
2023-03-25 03:30 5.91 7.69 173 5.00 49.5 52.2 0.23 238.0
2023-03-25 03:00 5.51 7.69 169 4.84 49.5 52.2 0.31 260.0
2023-03-25 02:30 5.45 7.69 169 4.96 49.5 52.2 0.27 247.0
2023-03-25 02:00 4.89 6.67 172 4.88 49.6 52.2 0.45 258.0
2023-03-25 01:30 4.82 7.14 174 5.02 49.5 52.5 0.37 257.0
2023-03-25 01:00 5.09 7.69 168 5.24 49.6 52.5 0.58 257.0
2023-03-25 00:30 4.95 7.14 174 5.13 49.6 52.5 0.58 261.0
2023-03-25 00:00 4.56 7.69 168 5.09 49.6 52.5 0.78 257.0
2023-03-24 23:30 4.82 7.69 167 5.35 49.5 52.7 0.82 246.0
2023-03-24 23:00 4.82 6.67 174 5.29 49.1 52.2 0.68 245.0
2023-03-24 22:30 4.72 6.67 176 5.26 49.5 53.1 0.72 237.0
2023-03-24 22:00 4.89 7.14 173 5.34 49.5 53.1 0.70 222.0
2023-03-24 21:30 5.02 7.14 174 5.45 50.0 52.2 0.78 211.0
2023-03-24 21:00 5.02 7.14 173 5.47 50.0 52.5 0.84 202.0
2023-03-24 20:30 5.22 7.14 172 5.44 49.6 52.2 0.72 183.0
2023-03-24 20:00 5.25 6.67 172 5.57 49.6 52.3 0.58 183.0
2023-03-24 19:30 5.25 7.69 164 5.66 50.2 52.9 0.64 168.0
2023-03-24 19:00 5.15 7.69 166 5.76 50.5 54.9 0.70 152.0
2023-03-24 18:30 5.02 6.25 173 5.47 50.4 55.6 0.76 143.0
2023-03-24 18:00 5.28 7.69 164 5.66 49.6 54.0 0.72 130.0
2023-03-24 17:30 4.99 6.67 172 5.45 49.5 56.3 0.66 117.0
2023-03-24 17:00 5.28 7.14 170 5.40 49.1 54.5 0.52 112.0
2023-03-24 16:30 5.15 7.14 172 5.37 48.9 54.9 0.45 105.0
2023-03-24 16:00 5.15 7.69 169 5.20 48.9 54.5 0.43 95.0
2023-03-24 15:30 5.28 7.69 168 5.07 48.9 54.9 0.49 93.0
2023-03-24 15:00 4.99 7.14 174 5.10 48.9 54.3 0.43 75.0
2023-03-24 14:30 4.99 7.69 169 5.14 48.9 54.5 0.27 63.0
2023-03-24 14:00 5.12 7.14 176 5.25 48.7 54.0 0.19 50.0
2023-03-24 13:30 5.15 7.14 174 5.20 48.7 54.0 0.16 24.0
2023-03-24 13:00 4.92 7.69 170 5.21 48.7 53.4 0.10 10.0
2023-03-24 12:30 5.09 7.69 171 5.24 48.7 53.2 0.12 342.0
2023-03-24 12:00 5.25 6.67 179 5.29 48.6 53.2 0.10 351.0
2023-03-24 11:30 5.12 6.67 176 5.21 48.6 53.4 0.17 305.0
2023-03-24 11:00 5.84 7.14 173 5.58 48.6 53.4 0.14 275.0
2023-03-24 10:30 5.61 6.67 177 5.47 48.6 53.4 0.12 288.0
2023-03-24 10:00 5.15 6.67 176 5.34 48.6 52.5 0.08 294.0
2023-03-24 09:30 5.61 7.14 170 5.55 48.6 53.2 0.08 135.0
2023-03-24 09:00 5.51 7.14 173 5.46 48.6 52.9 0.06 145.0
2023-03-24 08:30 6.14 7.69 166 5.69 48.6 52.9 0.17 172.0
2023-03-24 08:00 5.94 7.69 161 5.42 48.6 53.2 0.19 118.0
2023-03-24 07:30 5.41 7.14 166 5.40 48.7 53.4 0.23 140.0
2023-03-24 07:00 5.61 7.14 168 5.49 48.7 53.6 0.21 121.0
2023-03-24 06:30 5.71 7.14 168 5.46 48.7 53.6 0.31 110.0
2023-03-24 06:00 5.35 7.69 161 5.22 48.9 54.5 0.43 103.0
2023-03-24 05:30 5.12 7.14 166 5.23 48.9 54.0 0.51 89.0
2023-03-24 05:00 5.48 7.14 168 5.43 48.9 53.6 0.43 90.0
2023-03-24 04:30 5.35 6.67 171 5.27 48.9 54.0 0.39 84.0
2023-03-24 04:00 5.48 7.14 166 5.25 49.1 54.1 0.27 81.0
2023-03-24 03:30 5.35 6.67 169 5.12 49.1 53.4 0.31 83.0
2023-03-24 03:00 5.18 6.67 169 5.16 49.1 53.4 0.29 85.0
2023-03-24 02:30 5.09 5.88 170 4.85 49.1 53.6 0.27 78.0
2023-03-24 02:00 4.66 5.26 178 4.73 49.1 54.3 0.33 75.0
2023-03-24 01:30 4.82 5.26 178 4.64 49.1 54.9 0.27 75.0
2023-03-24 01:00 4.66 5.56 170 4.69 49.1 54.5 0.27 79.0
2023-03-24 00:30 4.53 5.88 170 4.56 49.1 54.3 0.31 78.0
2023-03-24 00:00 4.49 5.00 169 4.59 49.1 54.0 0.19 48.0
2023-03-23 23:30 4.40 6.25 161 4.66 49.1 54.0 0.16 38.0
2023-03-23 23:00 4.17 5.56 166 4.58 49.1 54.1 0.27 64.0
2023-03-23 22:30 4.17 5.56 164 4.44 49.1 54.7 0.21 47.0
2023-03-23 22:00 4.33 5.26 163 4.45 49.1 54.7 0.06 23.0
2023-03-23 21:30 4.23 4.55 178 4.56 49.1 54.5 0.10 115.0
2023-03-23 21:00 4.17 5.56 161 4.59 49.1 54.3 0.16 103.0
2023-03-23 20:30 3.97 5.00 164 4.53 49.1 54.7 0.21 113.0
2023-03-23 20:00 3.81 10.53 108 4.56 49.1 54.0 0.27 105.0
2023-03-23 19:30 3.51 7.69 128 4.56 49.1 54.0 0.35 116.0
2023-03-23 19:00 3.44 9.88 103 4.69 49.1 53.8 0.39 108.0
2023-03-23 18:30 3.38 10.53 119 4.68 48.9 53.2 0.51 102.0
2023-03-23 18:00 3.35 9.09 111 4.55 48.9 52.5 0.49 95.0
2023-03-23 17:30 3.44 9.88 118 4.67 48.7 52.5 0.56 88.0
2023-03-23 17:00 3.35 10.53 103 4.50 48.7 52.5 0.58 91.0
2023-03-23 16:30 3.31 9.88 116 4.55 48.7 52.0 0.64 93.0
2023-03-23 16:00 3.12 8.33 119 4.45 48.6 52.5 0.58 78.0
2023-03-23 15:30 3.12 8.33 115 4.32 48.4 52.3 0.54 84.0
2023-03-23 15:00 2.95 10.53 98 4.20 48.2 52.2 0.51 77.0
2023-03-23 14:30 2.92 9.09 116 4.36 48.2 52.5 0.56 76.0
2023-03-23 14:00 2.76 10.53 108 4.46 48.0 52.3 0.43 67.0
2023-03-23 13:30 2.66 10.53 110 5.03 48.2 52.0 0.37 55.0
2023-03-23 13:00 2.46 10.53 102 5.14 48.0 51.4 0.16 75.0
2023-03-23 12:30 2.62 9.88 110 5.24 48.0 50.7 0.21 45.0
2023-03-23 12:00 2.53 8.33 109 5.01 48.2 51.1 0.16 38.0
2023-03-23 11:30 2.59 10.53 118 4.83 48.2 51.1 0.10 26.0
2023-03-23 11:00 2.69 7.69 125 4.68 48.2 51.3 0.08 9.0
2023-03-23 10:30 2.79 7.69 120 4.65 48.2 51.1 0.10 206.0
2023-03-23 10:00 2.92 8.33 130 4.89 48.2 51.1 0.10 92.0
2023-03-23 09:30 2.92 7.69 119 4.69 48.0 51.4 0.17 117.0
2023-03-23 09:00 3.08 8.33 133 4.54 47.8 51.8 0.12 90.0
2023-03-23 08:30 2.95 7.69 129 4.74 48.0 51.6 0.10 126.0
2023-03-23 08:00 2.82 7.69 117 5.06 48.0 51.3 0.19 116.0
2023-03-23 07:30 2.72 7.14 114 4.95 48.2 51.1 0.17 130.0
2023-03-23 07:00 3.05 7.69 116 5.23 48.2 50.9 0.19 110.0
2023-03-23 06:30 3.05 7.69 113 5.28 48.2 51.1 0.23 111.0
2023-03-23 06:00 3.12 5.26 139 5.06 48.2 52.0 0.31 113.0
2023-03-23 05:30 3.08 7.69 114 5.14 48.2 51.3 0.37 128.0
2023-03-23 05:00 3.05 5.56 133 5.09 48.4 51.3 0.45 125.0
2023-03-23 04:30 3.08 7.69 113 5.21 48.4 51.6 0.49 124.0
2023-03-23 04:00 3.08 7.69 115 5.30 48.6 51.4 0.41 118.0
2023-03-23 03:30 3.28 5.56 136 5.36 48.7 51.6 0.45 117.0
2023-03-23 03:00 3.25 5.88 128 5.44 48.7 50.7 0.45 94.0
2023-03-23 02:30 3.35 7.69 109 5.47 48.6 50.7 0.37 95.0
2023-03-23 02:00 3.31 6.67 110 5.40 48.7 51.1 0.45 98.0
2023-03-23 01:30 3.51 6.67 109 5.50 48.7 51.6 0.45 74.0
2023-03-23 01:00 3.64 7.69 108 5.43 48.7 52.2 0.33 83.0
2023-03-23 00:30 3.58 7.69 113 5.60 48.6 51.1 0.19 42.0
2023-03-23 00:00 3.67 7.69 112 5.67 48.6 51.3 0.17 42.0
2023-03-22 23:30 3.84 7.14 113 5.88 48.6 51.4 0.23 7.0
2023-03-22 23:00 3.77 7.69 114 5.83 48.6 51.4 0.14 356.0
2023-03-22 22:30 3.71 8.33 117 5.80 48.4 51.1 0.14 355.0
2023-03-22 22:00 3.38 6.25 118 5.51 48.4 51.1 0.08 20.0
2023-03-22 21:30 3.58 5.88 123 5.41 48.6 51.1 0.02 30.0
2023-03-22 21:00 3.64 7.14 117 5.44 48.6 51.1 0.10 57.0
2023-03-22 20:30 3.61 5.56 130 5.26 48.6 51.6 0.16 61.0
2023-03-22 20:00 3.77 7.69 112 5.27 48.6 51.8 0.14 79.0
2023-03-22 19:30 3.77 7.14 119 5.36 49.1 52.2 0.33 87.0
2023-03-22 19:00 3.74 5.26 136 5.33 48.9 52.0 0.37 85.0
2023-03-22 18:30 3.71 5.26 138 5.30 48.7 51.8 0.41 82.0
2023-03-22 18:00 3.61 7.69 116 5.50 48.4 51.6 0.43 94.0
2023-03-22 17:30 3.54 5.26 147 5.29 48.6 51.8 0.51 88.0
2023-03-22 17:00 3.74 5.26 136 5.43 48.7 52.0 0.74 74.0
2023-03-22 16:30 3.61 8.33 118 5.44 48.7 0.68 62.0
2023-03-22 16:00 3.51 7.69 114 5.49 48.6 50.0 0.76 63.0
2023-03-22 15:30 3.48 7.69 116 5.34 48.6 50.5 0.74 52.0
2023-03-22 15:00 3.22 7.14 108 5.21 48.7 0.68 49.0
2023-03-22 14:30 3.28 7.69 119 5.40 48.6 50.4 0.68 38.0
2023-03-22 14:00 3.15 8.33 112 5.40 48.6 51.1 0.58 35.0
2023-03-22 13:30 3.08 7.69 122 5.71 48.6 49.8 0.51 30.0
2023-03-22 13:00 2.99 8.33 123 5.67 48.6 50.7 0.54 24.0
2023-03-22 12:30 2.85 7.69 116 5.84 48.6 51.3 0.47 14.0
2023-03-22 12:00 2.82 7.69 123 5.89 48.6 51.4 0.43 2.0
2023-03-22 11:30 2.76 7.69 117 5.88 48.7 51.1 0.41 348.0
2023-03-22 11:00 2.46 7.14 118 5.57 48.7 53.6 0.35 338.0
2023-03-22 10:30 2.72 7.14 121 5.78 48.7 52.3 0.39 332.0
2023-03-22 10:00 2.62 6.67 114 5.72 48.6 52.3 0.29 335.0
2023-03-22 09:30 2.66 7.69 119 5.67 48.6 52.2 0.33 318.0
2023-03-22 09:00 2.62 6.67 100 5.75 48.6 52.7 0.19 312.0
2023-03-22 08:30 2.56 7.14 111 5.67 48.6 51.1 0.17 325.0
2023-03-22 08:00 2.66 6.67 108 5.74 48.6 51.1 0.14 330.0
2023-03-22 07:30 2.56 6.67 112 5.87 48.6 51.1 0.06 313.0
2023-03-22 07:00 2.62 7.69 118 5.99 48.6 50.7 0.10 29.0
2023-03-22 06:30 2.49 6.67 109 5.90 48.6 50.5 0.14 14.0
2023-03-22 06:00 2.33 6.67 108 5.88 48.6 50.5 0.14 71.0
2023-03-22 05:30 2.40 7.14 102 5.86 48.6 50.7 0.19 94.0
2023-03-22 05:00 2.66 6.67 105 5.98 48.9 50.9 0.16 78.0
2023-03-22 04:30 2.49 6.67 104 5.90 48.9 50.7 0.27 103.0
2023-03-22 04:00 2.36 7.14 105 5.80 49.5 50.9 0.23 95.0
2023-03-22 03:30 2.36 7.14 105 5.84 49.6 50.9 0.23 94.0
2023-03-22 03:00 2.36 6.67 107 5.91 50.5 50.9 0.23 83.0
2023-03-22 02:30 2.30 7.14 104 5.94 50.7 50.7 0.21 59.0
2023-03-22 02:00 2.30 7.69 118 5.82 50.5 50.5 0.23 53.0
2023-03-22 01:30 2.23 7.14 96 5.68 50.7 49.8 0.21 3.0
2023-03-22 01:00 2.23 7.14 107 5.68 50.7 50.0 0.19 349.0
2023-03-22 00:30 2.10 7.69 98 5.37 50.9 49.8 0.21 342.0
2023-03-22 00:00 2.10 7.14 111 5.37 50.9 49.6 0.29 320.0
2023-03-21 23:30 2.07 7.14 100 5.24 50.7 49.3 0.33 305.0
2023-03-21 23:00 2.17 6.67 104 5.29 50.5 49.3 0.25 301.0
2023-03-21 22:30 2.13 6.67 96 5.01 50.9 49.5 0.35 299.0
2023-03-21 22:00 2.20 7.14 96 4.92 50.9 49.6 0.35 278.0
2023-03-21 21:30 2.20 6.67 94 4.93 50.9 49.1 0.39 266.0
2023-03-21 21:00 2.26 7.14 103 4.68 51.1 49.1 0.33 263.0
2023-03-21 20:30 2.26 7.14 99 4.70 50.9 48.9 0.29 238.0
2023-03-21 20:00 2.40 7.14 94 4.92 50.9 48.7 0.25 217.0
2023-03-21 19:30 2.53 7.14 98 4.80 50.9 48.4 0.21 198.0
2023-03-21 19:00 2.36 7.14 93 4.55 50.7 48.7 0.21 191.0
2023-03-21 18:30 2.53 13.33 87 4.43 50.5 48.4 0.17 189.0
2023-03-21 18:00 2.43 6.67 97 4.43 50.5 48.0 0.19 175.0
2023-03-21 17:30 2.40 7.69 101 4.38 50.4 48.2 0.17 138.0
2023-03-21 17:00 2.46 3.70 36 4.21 50.4 48.4 0.21 142.0
2023-03-21 16:30 2.49 14.29 87 4.19 50.4 48.6 0.23 119.0
2023-03-21 16:00 2.40 14.29 80 4.17 50.4 48.2 0.33 102.0
2023-03-21 15:30 2.49 3.45 40 4.30 50.2 48.0 0.31 92.0
2023-03-21 15:00 2.43 7.14 91 4.42 50.4 48.2 0.29 84.0
2023-03-21 14:30 2.49 3.70 44 4.30 50.4 47.8 0.29 75.0
2023-03-21 14:00 2.33 7.14 96 4.12 50.4 47.8 0.25 54.0
2023-03-21 13:30 2.53 14.29 81 4.23 50.4 47.5 0.25 34.0
2023-03-21 13:00 2.26 14.29 80 4.15 50.4 47.3 0.27 45.0
2023-03-21 12:30 2.30 13.33 79 4.15 50.2 47.1 0.19 12.0
2023-03-21 12:00 2.36 13.33 83 4.13 50.4 46.8 0.23 355.0
2023-03-21 11:30 2.33 3.45 27 4.20 50.4 46.4 0.29 354.0
2023-03-21 11:00 2.40 14.29 95 4.20 50.2 46.0 0.27 330.0
2023-03-21 10:30 2.40 13.33 79 4.23 50.2 46.2 0.33 315.0
2023-03-21 10:00 2.43 14.29 81 4.07 50.2 46.2 0.31 318.0
2023-03-21 09:30 2.53 7.14 101 4.08 50.2 46.0 0.31 274.0
2023-03-21 09:00 2.56 13.33 72 4.03 50.0 45.5 0.31 262.0
2023-03-21 08:30 2.62 3.23 15 4.02 50.0 45.5 0.25 270.0
2023-03-21 08:00 2.59 14.29 84 3.99 50.0 45.1 0.25 267.0
2023-03-21 07:30 2.66 13.33 84 3.99 50.0 45.0 0.27 253.0
2023-03-21 07:00 2.49 14.29 73 4.09 49.8 44.6 0.25 228.0
2023-03-21 06:30 2.62 15.38 74 4.02 49.8 44.4 0.12 205.0
2023-03-21 06:00 2.59 14.29 74 4.11 49.8 43.9 0.23 218.0
2023-03-21 05:30 2.53 7.69 115 4.06 49.6 43.7 0.23 203.0
2023-03-21 05:00 2.62 4.76 30 4.23 49.6 43.5 0.14 188.0
2023-03-21 04:30 2.59 7.14 115 4.47 49.6 43.5 0.17 165.0
2023-03-21 04:00 2.59 7.69 118 4.30 49.6 43.3 0.21 165.0
2023-03-21 03:30 2.69 5.56 43 4.46 49.6 43.5 0.10 159.0
2023-03-21 03:00 2.66 5.00 32 4.35 49.8 43.2 0.21 150.0
2023-03-21 02:30 2.72 5.26 41 4.36 49.8 43.2 0.21 152.0
2023-03-21 02:00 2.99 5.56 43 4.35 50.0 43.2 0.14 155.0
2023-03-21 01:30 2.99 5.56 47 4.30 50.0 43.0 0.12 165.0
2023-03-21 01:00 3.08 5.56 31 4.47 50.0 43.0 0.12 198.0
2023-03-21 00:30 3.12 5.56 33 4.48 50.0 43.2 0.16 199.0
2023-03-21 00:00 3.15 5.00 35 4.55 50.0 43.0 0.16 208.0
2023-03-20 23:30 3.18 5.88 35 4.62 50.0 43.0 0.17 194.0
2023-03-20 23:00 3.08 5.88 32 4.43 50.0 43.2 0.17 236.0
2023-03-20 22:30 3.22 5.88 33 4.42 50.0 43.0 0.27 207.0
2023-03-20 22:00 3.25 5.88 33 4.43 50.0 43.0 0.27 212.0
2023-03-20 21:30 3.25 5.00 23 4.23 50.0 43.5 0.25 213.0
2023-03-20 21:00 3.35 5.26 22 4.21 50.0 43.3 0.37 225.0
2023-03-20 20:30 3.18 12.50 75 4.31 50.0 43.3 0.37 211.0
2023-03-20 20:00 3.44 5.00 11 4.31 50.2 43.5 0.37 214.0
2023-03-20 19:30 3.51 4.55 9 4.37 50.2 43.5 0.35 188.0
2023-03-20 19:00 3.41 4.76 11 4.31 50.0 43.3 0.35 190.0
2023-03-20 18:30 3.31 5.00 11 4.35 50.0 43.0 0.29 196.0
2023-03-20 18:00 3.54 5.26 18 4.22 50.0 43.2 0.25 175.0
2023-03-20 17:30 3.74 5.00 9 4.32 50.0 43.0 0.31 175.0
2023-03-20 17:00 3.31 5.26 14 4.36 50.0 43.2 0.25 151.0
2023-03-20 16:30 3.38 5.26 21 4.48 50.0 43.5 0.31 153.0
2023-03-20 16:00 3.35 5.00 16 4.43 50.0 43.2 0.29 126.0
2023-03-20 15:30 3.41 5.26 17 4.53 50.2 43.7 0.33 123.0
2023-03-20 15:00 3.41 5.56 27 4.59 50.2 43.5 0.39 118.0
2023-03-20 14:30 3.31 5.26 22 4.55 50.4 43.3 0.41 107.0
2023-03-20 14:00 3.38 5.56 28 4.63 50.5 43.3 0.25 99.0
2023-03-20 13:30 3.48 5.00 22 4.58 50.5 42.8 0.21 102.0
2023-03-20 13:00 3.54 5.26 22 4.55 50.5 43.0 0.21 81.0
2023-03-20 12:30 3.71 5.56 25 4.67 50.5 42.4 0.12 69.0
2023-03-20 12:00 3.67 5.56 20 4.51 50.5 42.4 0.06 357.0
2023-03-20 11:30 3.74 5.56 16 4.52 50.5 41.5 0.16 4.0
2023-03-20 11:00 3.81 5.88 23 4.56 50.5 41.7 0.16 262.0
2023-03-20 10:30 3.97 5.56 20 4.71 50.5 41.9 0.21 233.0
2023-03-20 10:00 3.97 5.56 18 4.65 50.5 41.9 0.19 239.0
2023-03-20 09:30 3.77 4.76 352 4.48 50.4 42.1 0.17 255.0
2023-03-20 09:00 4.10 5.88 25 4.52 50.4 42.3 0.33 240.0
2023-03-20 08:30 4.13 5.88 18 4.57 50.2 42.1 0.33 242.0
2023-03-20 08:00 4.30 5.26 2 4.67 50.2 42.3 0.43 228.0
2023-03-20 07:30 4.23 5.56 6 4.58 50.0 42.1 0.49 218.0
2023-03-20 07:00 4.40 5.56 350 4.65 50.0 42.1 0.41 224.0
2023-03-20 06:30 4.59 5.56 349 4.63 50.0 42.1 0.45 229.0
2023-03-20 06:00 4.66 5.56 349 4.72 50.0 42.1 0.43 222.0
2023-03-20 05:30 5.12 5.56 357 4.86 50.0 42.3 0.49 209.0
2023-03-20 05:00 4.92 5.56 358 4.78 50.0 42.1 0.41 206.0
2023-03-20 04:30 4.72 5.56 357 4.64 50.0 42.4 0.43 188.0
2023-03-20 04:00 4.76 5.56 3 4.64 50.0 42.4 0.45 185.0
2023-03-20 03:30 4.86 5.56 5 4.73 50.0 42.3 0.51 162.0
2023-03-20 03:00 5.22 5.88 12 4.70 50.0 42.1 0.45 155.0
2023-03-20 02:30 5.18 5.88 7 4.67 50.0 41.9 0.49 161.0
2023-03-20 02:00 5.31 5.88 9 4.71 50.0 41.4 0.47 153.0
2023-03-20 01:30 4.89 6.25 13 4.71 50.0 41.2 0.45 162.0
2023-03-20 01:00 5.28 6.25 17 4.81 50.0 41.0 0.39 167.0
2023-03-20 00:30 5.05 5.88 19 5.00 50.0 40.6 0.33 172.0
2023-03-20 00:00 5.12 6.25 16 5.04 50.2 40.1 0.41 187.0
2023-03-19 23:30 4.92 6.25 15 4.95 50.0 39.9 0.33 186.0
2023-03-19 23:00 5.15 5.88 10 5.13 50.0 39.9 0.35 197.0
2023-03-19 22:30 5.15 6.25 16 4.91 50.2 39.7 0.39 209.0
2023-03-19 22:00 5.18 6.25 12 4.99 50.0 39.9 0.27 220.0
2023-03-19 21:30 5.48 6.25 16 5.02 50.0 39.7 0.58 210.0
2023-03-19 21:00 5.54 5.26 349 4.83 50.0 40.1 0.52 199.0
2023-03-19 20:30 5.54 6.25 10 4.93 50.0 39.9 0.60 210.0
2023-03-19 20:00 5.84 6.25 12 4.94 50.0 39.7 0.56 207.0
2023-03-19 19:30 6.14 6.67 17 5.05 50.0 39.6 0.54 204.0
2023-03-19 19:00 6.20 5.88 6 5.00 50.0 39.7 0.68 197.0
2023-03-19 18:30 6.17 6.67 15 5.02 50.0 39.4 0.64 198.0
2023-03-19 18:00 7.02 6.25 3 5.19 50.0 39.4 0.66 195.0
2023-03-19 17:30 7.25 6.67 12 5.22 50.0 39.6 0.68 179.0
2023-03-19 17:00 6.89 6.25 359 5.14 50.0 39.4 0.70 182.0
2023-03-19 16:30 7.19 6.25 358 5.15 50.0 39.9 0.66 167.0
2023-03-19 16:00 6.76 6.25 8 5.11 50.0 40.5 0.62 177.0
2023-03-19 15:30 6.86 5.88 4 5.07 50.0 40.6 0.60 163.0
2023-03-19 15:00 6.56 5.56 6 4.96 50.0 41.7 0.62 162.0
2023-03-19 14:30 6.66 5.56 2 4.93 50.0 42.4 0.62 145.0
2023-03-19 14:00 6.04 5.26 358 4.72 50.0 43.3 0.58 139.0
2023-03-19 13:30 6.33 5.26 353 4.82 50.0 44.4 0.47 135.0
2023-03-19 13:00 6.17 5.00 350 4.84 50.0 44.2 0.47 132.0
2023-03-19 12:30 5.54 5.26 346 4.70 50.0 45.0 0.37 144.0
2023-03-19 12:00 5.15 4.55 345 4.64 50.0 45.0 0.25 152.0
2023-03-19 11:30 5.12 4.55 348 4.65 50.0 45.9 0.21 146.0
2023-03-19 11:00 4.82 4.35 341 4.70 50.0 46.4 0.14 173.0
2023-03-19 10:30 4.49 11.11 143 4.71 50.0 46.9 0.10 212.0
2023-03-19 10:00 4.36 10.53 149 5.22 50.0 48.2 0.04 272.0
2023-03-19 09:30 4.17 10.53 157 5.23 50.0 48.4 0.10 245.0
2023-03-19 09:00 3.90 9.09 161 5.29 50.0 48.6 0.08 248.0
2023-03-19 08:30 4.04 9.88 157 5.87 50.0 48.6 0.17 293.0
2023-03-19 08:00 4.04 9.09 161 5.95 50.0 48.6 0.10 291.0
2023-03-19 07:30 3.90 10.53 154 6.38 50.0 48.4 0.27 286.0
2023-03-19 07:00 3.97 9.88 162 6.93 50.0 48.0 0.39 273.0
2023-03-19 06:30 4.20 10.53 157 7.37 50.0 47.7 0.33 264.0
2023-03-19 06:00 4.10 11.76 147 7.39 49.8 47.5 0.43 254.0
2023-03-19 05:30 4.33 10.53 154 7.64 49.8 47.5 0.43 247.0
2023-03-19 05:00 4.49 10.53 158 7.91 49.8 47.3 0.41 247.0
2023-03-19 04:30 4.59 10.53 158 7.89 49.8 47.1 0.39 234.0
2023-03-19 04:00 4.69 11.11 151 7.90 49.6 47.1 0.39 223.0
2023-03-19 03:30 5.05 11.11 151 8.27 49.6 46.8 0.39 203.0
2023-03-19 03:00 4.79 11.11 156 7.78 49.5 46.6 0.23 173.0
2023-03-19 02:30 5.31 10.53 156 7.85 49.5 46.4 0.33 181.0
2023-03-19 02:00 4.66 10.53 152 7.44 49.5 46.2 0.23 179.0
2023-03-19 01:30 5.18 10.53 152 7.61 49.5 46.0 0.14 155.0
2023-03-19 01:00 4.86 10.53 152 7.12 49.5 46.2 0.27 155.0
2023-03-19 00:30 4.79 10.53 152 7.15 49.5 46.0 0.27 175.0
2023-03-19 00:00 4.86 9.88 155 6.86 49.3 45.7 0.27 179.0
2023-03-18 23:30 4.89 10.53 156 6.97 49.3 45.9 0.27 196.0
2023-03-18 23:00 4.89 11.11 150 6.76 49.3 45.9 0.25 195.0
2023-03-18 22:30 5.28 11.11 154 6.55 49.3 46.2 0.25 212.0
2023-03-18 22:00 5.22 11.11 151 6.45 49.3 45.5 0.31 211.0
2023-03-18 21:30 4.95 11.11 147 5.99 49.3 45.5 0.29 224.0
2023-03-18 21:00 5.18 9.09 159 6.02 49.1 45.3 0.35 209.0
2023-03-18 20:30 5.31 6.25 31 5.80 49.1 45.3 0.37 211.0
2023-03-18 20:00 5.54 5.56 9 5.78 48.9 45.5 0.43 209.0
2023-03-18 19:30 5.58 5.88 14 5.78 48.7 45.7 0.47 201.0
2023-03-18 19:00 6.17 5.56 2 5.66 48.6 45.5 0.49 203.0
2023-03-18 18:30 6.14 5.56 358 5.50 48.6 45.3 0.58 194.0
2023-03-18 18:00 6.43 5.88 5 5.58 48.4 45.0 0.54 193.0
2023-03-18 17:30 6.27 5.56 358 5.35 48.4 43.9 0.51 189.0
2023-03-18 17:00 6.63 5.56 352 5.39 48.2 45.1 0.60 173.0
2023-03-18 16:30 6.89 5.56 338 5.35 48.2 45.9 0.52 189.0
2023-03-18 16:00 6.66 5.56 344 5.34 48.2 45.9 0.51 177.0
2023-03-18 15:30 6.66 5.26 341 5.27 48.2 46.0 0.62 167.0
2023-03-18 15:00 6.86 5.26 342 5.36 48.2 46.0 0.64 168.0
2023-03-18 14:30 6.56 5.26 330 5.44 48.2 45.9 0.62 160.0
2023-03-18 14:00 6.99 4.76 330 5.29 48.2 45.5 0.58 142.0
2023-03-18 13:30 6.20 8.33 169 5.12 48.2 45.5 0.60 139.0
2023-03-18 13:00 5.77 7.14 176 5.12 48.2 46.6 0.68 132.0
2023-03-18 12:30 5.38 7.14 174 5.10 48.2 0.60 135.0
2023-03-18 12:00 5.02 7.69 175 5.30 48.2 46.8 0.54 119.0
2023-03-18 11:30 5.28 7.69 172 5.84 48.2 47.3 0.52 96.0
2023-03-18 11:00 4.99 7.14 177 5.90 48.4 50.4 0.49 67.0
2023-03-18 10:30 5.05 6.25 180 5.74 48.4 50.7 0.35 58.0
2023-03-18 10:00 5.15 6.67 179 5.69 48.6 50.9 0.33 39.0
2023-03-18 09:30 5.25 7.14 172 5.76 48.6 51.6 0.27 54.0
2023-03-18 09:00 5.25 7.14 175 5.49 48.6 52.0 0.27 40.0
2023-03-18 08:30 5.18 6.67 177 5.43 48.6 52.5 0.25 34.0
2023-03-18 08:00 5.12 7.14 174 5.29 48.6 52.5 0.23 26.0
2023-03-18 07:30 5.38 6.67 176 5.15 48.6 54.3 0.25 40.0
2023-03-18 07:00 5.45 6.67 179 5.09 48.6 53.8 0.10 24.0
2023-03-18 06:30 5.45 6.67 178 5.12 48.4 52.7 0.14 70.0
2023-03-18 06:00 5.74 6.67 177 5.30 48.4 51.3 0.02 111.0
2023-03-18 05:30 5.68 6.67 174 5.25 48.2 52.0 0.04 192.0
2023-03-18 05:00 5.84 6.67 179 5.32 48.2 52.7 0.04 53.0
2023-03-18 04:30 5.87 6.67 178 5.32 48.2 53.2 0.19 115.0
2023-03-18 04:00 5.81 6.67 180 5.29 48.2 0.21 100.0
2023-03-18 03:30 6.07 6.25 183 5.35 48.0 0.27 102.0
2023-03-18 03:00 6.27 6.67 176 5.34 48.0 52.0 0.43 104.0
2023-03-18 02:30 6.69 6.67 179 5.45 48.2 51.8 0.47 98.0
2023-03-18 02:00 6.36 6.67 177 5.30 48.4 53.8 0.39 93.0
2023-03-18 01:30 6.86 6.25 183 5.26 48.4 53.8 0.51 90.0
2023-03-18 01:00 6.63 6.25 185 5.27 48.6 54.3 0.52 97.0
2023-03-18 00:30 6.69 6.25 185 5.24 48.6 54.7 0.54 96.0
2023-03-18 00:00 6.33 6.25 179 5.11 48.6 54.3 0.54 85.0
2023-03-17 23:30 6.36 5.88 190 5.04 48.6 54.1 0.56 92.0
2023-03-17 23:00 6.59 6.25 185 5.16 48.7 54.3 0.49 81.0
2023-03-17 22:30 6.36 5.88 193 4.96 48.9 54.0 0.47 94.0
2023-03-17 22:00 6.20 6.25 187 4.94 48.9 54.3 0.45 94.0
2023-03-17 21:30 6.23 5.88 187 4.97 48.9 54.9 0.43 78.0
2023-03-17 21:00 5.71 5.56 186 4.81 49.1 54.9 0.47 89.0
2023-03-17 20:30 5.68 5.88 186 4.84 49.1 54.5 0.33 99.0
2023-03-17 20:00 5.81 5.88 184 4.89 48.9 54.7 0.37 91.0
2023-03-17 19:30 4.95 5.00 186 4.61 49.1 53.8 0.33 79.0
2023-03-17 19:00 5.05 4.76 190 4.66 48.9 54.3 0.45 91.0
2023-03-17 18:30 4.92 5.00 172 4.59 49.1 53.8 0.29 92.0
2023-03-17 18:00 4.59 3.85 191 4.53 49.5 53.1 0.37 81.0
2023-03-17 17:30 4.30 11.76 62 4.79 49.5 52.9 0.16 80.0
2023-03-17 17:00 4.00 11.76 79 4.71 49.6 53.2 0.19 78.0
2023-03-17 16:30 4.10 11.11 73 4.87 49.6 52.3 0.23 91.0
2023-03-17 16:00 4.04 11.11 70 5.10 49.6 52.0 0.21 84.0
2023-03-17 15:30 3.81 10.53 79 4.88 49.6 51.8 0.29 87.0
2023-03-17 15:00 3.84 11.11 65 4.89 49.5 51.1 0.33 75.0
2023-03-17 14:30 3.84 11.76 71 4.78 49.5 51.4 0.37 80.0
2023-03-17 14:00 4.00 11.11 62 4.70 49.5 51.6 0.39 87.0
2023-03-17 13:30 3.90 11.11 72 4.90 49.5 51.1 0.39 82.0
2023-03-17 13:00 3.94 11.11 75 4.83 49.5 51.1 0.37 82.0
2023-03-17 12:30 3.84 10.53 68 4.76 49.5 51.1 0.43 85.0
2023-03-17 12:00 3.87 10.53 79 4.64 49.5 50.7 0.49 78.0
2023-03-17 11:30 3.77 10.53 65 4.60 49.5 50.4 0.43 77.0
2023-03-17 11:00 3.58 3.85 210 4.21 49.5 50.2 0.37 64.0
2023-03-17 10:30 3.51 10.53 70 4.56 49.5 50.4 0.39 77.0
2023-03-17 10:00 3.54 11.11 66 4.57 49.5 50.2 0.33 61.0
2023-03-17 09:30 3.54 4.17 208 4.51 49.5 49.8 0.27 55.0
2023-03-17 09:00 3.54 11.76 68 4.46 49.5 49.8 0.21 55.0
2023-03-17 08:30 3.48 3.85 211 4.33 49.5 49.6 0.27 59.0
2023-03-17 08:00 3.61 10.53 66 4.33 49.5 50.0 0.23 45.0
2023-03-17 07:30 3.48 11.76 68 4.44 49.5 50.2 0.16 14.0
2023-03-17 07:00 3.51 3.85 209 4.41 49.5 50.2 0.10 53.0
2023-03-17 06:30 3.51 10.53 64 4.46 49.5 49.8 0.06 298.0
2023-03-17 06:00 3.54 10.53 62 4.93 49.5 50.0 0.02 151.0
2023-03-17 05:30 3.41 10.53 67 4.76 49.6 49.8 0.06 120.0
2023-03-17 05:00 3.67 11.11 62 4.91 49.6 50.0 0.14 154.0
2023-03-17 04:30 3.61 11.11 61 4.80 49.6 49.8 0.12 96.0
2023-03-17 04:00 3.71 10.53 53 4.74 49.6 50.0 0.10 142.0
2023-03-17 03:30 3.74 11.76 57 4.64 49.6 49.6 0.08 156.0
2023-03-17 03:00 3.67 9.88 68 4.71 49.6 49.1 0.12 107.0
2023-03-17 02:30 3.35 10.53 58 4.57 49.6 48.9 0.12 170.0
2023-03-17 02:00 3.41 10.53 56 4.80 49.8 48.6 0.19 148.0
2023-03-17 01:30 3.35 10.53 52 4.65 49.8 48.4 0.14 104.0
2023-03-17 01:00 3.38 10.53 63 4.82 49.8 48.0 0.25 114.0
2023-03-17 00:30 3.12 10.53 59 4.84 50.0 47.7 0.27 144.0
2023-03-17 00:00 3.25 6.67 40 4.77 50.0 47.5 0.23 139.0
2023-03-16 23:30 3.31 6.25 39 5.41 50.0 47.3 0.31 143.0
2023-03-16 23:00 3.25 6.25 32 5.52 50.0 47.3 0.27 144.0
2023-03-16 22:30 3.67 6.67 33 5.76 50.2 48.6 0.29 144.0
2023-03-16 22:00 3.94 7.14 37 5.74 50.2 49.1 0.25 128.0
2023-03-16 21:30 4.36 6.67 34 5.81 50.4 49.3 0.19 139.0
2023-03-16 21:00 4.30 7.14 40 5.66 50.4 48.9 0.23 147.0
2023-03-16 20:30 4.72 7.69 41 5.69 50.2 48.6 0.21 163.0
2023-03-16 20:00 4.92 7.14 40 5.72 50.2 48.4 0.23 175.0
2023-03-16 19:30 4.89 6.25 30 5.58 50.2 48.0 0.23 182.0
2023-03-16 19:00 5.15 7.14 39 5.58 50.2 47.7 0.23 193.0
2023-03-16 18:30 5.25 7.69 40 5.57 50.0 47.3 0.27 195.0
2023-03-16 18:00 6.04 7.69 41 5.92 50.0 47.1 0.37 187.0
2023-03-16 17:30 5.64 7.14 39 5.74 50.0 47.1 0.31 212.0
2023-03-16 17:00 5.97 8.33 41 5.77 49.6 46.8 0.41 206.0
2023-03-16 16:30 6.46 7.69 38 5.83 49.6 46.6 0.43 200.0
2023-03-16 16:00 6.17 7.14 38 5.69 49.6 46.6 0.39 194.0
2023-03-16 15:30 6.17 7.14 35 5.53 49.6 46.4 0.37 203.0
2023-03-16 15:00 6.43 7.14 34 5.68 49.5 46.4 0.29 210.0
2023-03-16 14:30 6.17 7.14 34 5.56 49.5 46.8 0.39 191.0
2023-03-16 14:00 6.76 7.69 37 5.54 49.5 46.8 0.49 195.0
2023-03-16 13:30 6.66 6.67 18 5.36 49.5 46.9 0.45 190.0
2023-03-16 13:00 6.27 7.14 33 5.23 49.5 46.4 0.29 167.0
2023-03-16 12:30 6.56 6.67 24 5.21 49.5 46.6 0.31 170.0
2023-03-16 12:00 6.82 6.67 24 5.31 49.5 46.6 0.43 175.0
2023-03-16 11:30 6.76 6.67 25 5.34 49.5 46.2 0.25 159.0
2023-03-16 11:00 7.15 6.25 15 5.26 49.5 45.7 0.29 152.0
2023-03-16 10:30 6.92 7.14 28 5.19 49.5 46.2 0.27 180.0
2023-03-16 10:00 6.89 6.67 15 5.26 49.5 46.0 0.21 169.0
2023-03-16 09:30 6.96 6.67 16 5.25 49.5 46.2 0.25 166.0
2023-03-16 09:00 7.51 6.25 11 5.33 49.5 46.2 0.23 200.0
2023-03-16 08:30 6.96 6.67 17 5.17 49.5 46.2 0.27 191.0
2023-03-16 08:00 6.73 6.25 10 5.10 49.5 46.6 0.17 199.0
2023-03-16 07:30 6.53 6.25 8 5.13 49.5 46.6 0.19 217.0
2023-03-16 07:00 6.56 6.25 2 5.02 49.5 46.8 0.17 199.0
2023-03-16 06:30 6.66 5.88 354 5.00 49.5 46.9 0.10 215.0
2023-03-16 06:00 6.76 5.88 356 5.10 49.5 47.1 0.16 223.0
2023-03-16 05:30 6.63 6.25 359 5.12 49.5 47.3 0.25 202.0
2023-03-16 05:00 6.46 6.25 350 5.01 49.5 47.5 0.12 252.0
2023-03-16 04:30 6.79 5.88 354 5.17 49.5 47.5 0.19 212.0
2023-03-16 04:00 7.02 6.25 5 5.27 49.5 47.8 0.19 218.0
2023-03-16 03:30 6.79 6.67 12 5.13 49.5 47.8 0.23 207.0
2023-03-16 03:00 6.53 5.88 348 5.26 49.5 47.8 0.14 202.0
2023-03-16 02:30 6.89 7.14 16 5.32 49.5 48.0 0.25 194.0
2023-03-16 02:00 7.22 7.14 18 5.35 49.5 48.0 0.29 168.0
2023-03-16 01:30 7.19 7.14 18 5.49 49.5 48.0 0.29 192.0
2023-03-16 01:00 7.55 7.14 13 5.54 49.5 47.7 0.16 174.0
2023-03-16 00:30 7.51 7.14 15 5.55 49.5 47.5 0.31 176.0
2023-03-16 00:00 7.94 7.69 20 5.60 49.5 46.9 0.19 166.0
2023-03-15 23:30 8.96 7.69 17 5.94 49.5 46.6 0.19 158.0
2023-03-15 23:00 8.50 7.14 2 5.78 49.5 46.6 0.29 145.0
2023-03-15 22:30 9.19 7.69 16 6.01 49.5 46.9 0.33 165.0
2023-03-15 22:00 9.58 7.69 12 6.15 49.5 46.6 0.25 147.0
2023-03-15 21:30 9.97 7.69 11 6.09 49.5 46.6 0.25 123.0
2023-03-15 21:00 10.10 7.69 5 6.15 49.5 45.9 0.29 156.0
2023-03-15 20:30 10.24 7.69 8 6.17 49.5 45.1 0.41 143.0
2023-03-15 20:00 10.56 7.69 357 6.23 49.5 45.0 0.37 149.0
2023-03-15 19:30 11.48 7.69 356 6.19 49.5 44.1 0.37 137.0
2023-03-15 19:00 10.99 7.69 352 6.19 49.5 43.7 0.31 141.0
2023-03-15 18:30 11.22 7.69 355 6.39 49.5 42.8 0.41 178.0
2023-03-15 18:00 10.86 8.33 2 6.24 49.5 42.6 0.41 157.0
2023-03-15 17:30 12.17 8.33 358 6.54 49.5 41.7 0.29 179.0
2023-03-15 17:00 11.75 7.69 346 6.36 49.5 41.2 0.16 165.0
2023-03-15 16:30 11.81 7.69 348 6.39 49.5 40.8 0.31 196.0
2023-03-15 16:00 12.50 7.69 348 6.60 49.5 40.8 0.35 201.0
2023-03-15 15:30 12.96 7.69 344 6.70 49.5 40.6 0.37 195.0
2023-03-15 15:00 12.73 8.33 350 6.50 49.5 39.9 0.23 166.0
2023-03-15 14:30 12.50 7.69 333 6.38 49.5 40.6 0.43 177.0
2023-03-15 14:00 12.53 7.69 348 6.50 49.5 40.8 0.37 182.0
2023-03-15 13:30 11.81 7.69 342 6.42 49.3 40.5 0.54 163.0
2023-03-15 13:00 12.04 7.69 342 6.48 49.5 39.7 0.41 164.0
2023-03-15 12:30 11.55 7.69 341 6.33 49.3 39.2 0.51 171.0
2023-03-15 12:00 11.06 7.69 342 6.34 49.3 39.2 0.51 160.0
2023-03-15 11:30 11.25 7.69 342 6.36 49.5 38.8 0.41 150.0
2023-03-15 11:00 12.20 8.33 355 6.44 49.5 38.5 0.58 146.0
2023-03-15 10:30 12.14 7.69 334 6.47 49.5 39.2 0.52 134.0
2023-03-15 10:00 12.99 7.69 337 6.51 49.5 39.0 0.62 146.0
2023-03-15 09:30 12.70 7.69 325 6.53 49.5 38.5 0.64 138.0
2023-03-15 09:00 12.11 7.69 332 6.46 49.5 38.5 0.56 130.0
2023-03-15 08:30 12.40 7.69 331 6.49 49.5 38.8 0.51 140.0
2023-03-15 08:00 11.65 7.69 329 6.37 49.5 39.0 0.35 119.0
2023-03-15 07:30 11.91 7.69 332 6.52 49.5 39.2 0.52 125.0
2023-03-15 07:00 12.63 7.69 336 6.44 49.5 39.4 0.43 130.0
2023-03-15 06:30 12.11 7.69 330 6.47 49.5 39.2 0.27 115.0
2023-03-15 06:00 11.84 7.69 329 6.43 49.5 39.6 0.43 146.0
2023-03-15 05:30 12.24 7.69 335 6.46 49.5 39.4 0.51 145.0
2023-03-15 05:00 11.45 7.69 330 6.41 49.5 40.3 0.33 149.0
2023-03-15 04:30 11.15 7.69 328 6.39 49.5 40.5 0.35 173.0
2023-03-15 04:00 11.91 7.69 329 6.49 49.5 40.8 0.37 178.0
2023-03-15 03:30 11.19 7.69 333 6.32 49.5 41.9 0.21 192.0
2023-03-15 03:00 10.37 7.14 331 6.19 49.5 42.1 0.37 172.0
2023-03-15 02:30 10.93 7.69 335 6.26 49.5 43.2 0.41 182.0
2023-03-15 02:00 10.66 7.14 330 6.13 49.5 43.5 0.47 185.0
2023-03-15 01:30 9.28 6.67 323 5.77 49.5 44.2 0.64 186.0
2023-03-15 01:00 8.27 6.25 311 5.53 49.5 45.3 0.51 173.0
2023-03-15 00:30 7.81 6.25 316 5.52 49.5 46.4 0.51 177.0
2023-03-15 00:00 7.41 5.88 310 5.37 49.5 46.6 0.56 162.0
2023-03-14 23:30 6.92 5.88 307 5.45 49.5 46.9 0.64 156.0
2023-03-14 23:00 7.09 5.88 306 5.62 49.6 46.9 0.60 169.0
2023-03-14 22:30 7.38 5.88 306 5.60 49.6 47.1 0.62 164.0
2023-03-14 22:00 6.79 5.88 307 5.63 49.6 47.5 0.74 164.0
2023-03-14 21:30 6.86 5.88 302 5.56 49.6 47.1 0.64 165.0
2023-03-14 21:00 7.32 6.25 313 5.69 49.6 46.6 0.76 161.0
2023-03-14 20:30 7.84 6.25 302 5.67 49.6 46.2 0.74 163.0
2023-03-14 20:00 8.33 6.67 315 5.80 49.6 45.7 0.68 167.0
2023-03-14 19:30 8.20 6.67 309 5.96 49.6 45.0 0.76 165.0
2023-03-14 19:00 9.32 6.25 308 6.02 49.6 44.1 0.82 163.0
2023-03-14 18:30 9.25 6.67 313 6.15 49.5 43.5 0.70 163.0
2023-03-14 18:00 9.58 14.29 77 6.33 49.5 43.3 0.84 159.0
2023-03-14 17:30 10.76 6.67 310 6.30 49.5 42.6 0.70 160.0
2023-03-14 17:00 10.93 6.67 314 6.44 49.3 42.4 0.66 175.0
2023-03-14 16:30 10.79 6.67 309 6.27 49.1 41.9 0.78 180.0
2023-03-14 16:00 11.12 7.14 310 6.43 49.1 42.1 0.74 180.0
2023-03-14 15:30 10.53 7.14 320 6.47 49.1 42.3 0.82 174.0
2023-03-14 15:00 11.22 6.67 315 6.52 48.7 41.7 0.84 177.0
2023-03-14 14:30 10.83 6.67 327 6.39 48.7 41.7 0.99 180.0
2023-03-14 14:00 11.15 7.14 325 6.46 48.7 41.9 0.91 176.0
2023-03-14 13:30 11.22 6.67 335 6.52 48.7 42.1 1.19 183.0
2023-03-14 13:00 10.89 6.67 339 6.50 48.6 42.1 1.19 180.0
2023-03-14 12:30 10.43 6.25 333 6.42 48.4 42.1 1.22 175.0
2023-03-14 12:00 10.76 13.33 61 6.58 48.4 41.9 1.38 177.0
2023-03-14 11:30 10.40 6.25 342 6.34 48.4 42.6 1.36 171.0
2023-03-14 11:00 9.61 13.33 62 6.24 48.2 42.6 1.34 168.0
2023-03-14 10:30 10.40 13.33 63 6.68 48.2 43.2 1.22 171.0
2023-03-14 10:00 9.88 13.33 60 6.65 48.2 43.7 1.22 169.0
2023-03-14 09:30 10.50 13.33 60 7.04 48.2 44.2 1.32 173.0
2023-03-14 09:00 10.30 13.33 59 6.96 48.4 44.6 1.15 161.0
2023-03-14 08:30 9.51 12.50 63 6.77 48.4 45.3 1.26 166.0
2023-03-14 08:00 9.06 14.29 69 6.54 48.6 46.0 1.19 162.0
2023-03-14 07:30 9.02 14.29 67 6.81 48.6 46.6 1.15 167.0
2023-03-14 07:00 9.28 13.33 69 6.93 48.9 46.6 1.07 168.0
2023-03-14 06:30 9.48 12.50 70 6.79 49.1 46.6 1.07 175.0
2023-03-14 06:00 9.15 12.50 65 6.78 49.1 46.2 0.89 175.0
2023-03-14 05:30 10.10 13.33 63 7.15 49.1 46.4 0.87 177.0
2023-03-14 05:00 10.76 13.33 67 7.57 48.9 46.2 0.89 179.0
2023-03-14 04:30 10.27 13.33 76 7.17 48.9 46.4 0.82 186.0
2023-03-14 04:00 10.24 12.50 66 7.31 48.9 46.0 0.91 181.0
2023-03-14 03:30 10.73 12.50 69 7.30 48.9 45.9 1.01 190.0
2023-03-14 03:00 10.56 13.33 72 7.01 48.9 45.9 1.01 196.0
2023-03-14 02:30 10.70 14.29 76 7.38 49.1 45.9 1.09 188.0
2023-03-14 02:00 10.70 12.50 73 7.04 49.1 46.2 1.11 193.0
2023-03-14 01:30 10.20 12.50 70 7.16 49.1 46.2 1.15 193.0
2023-03-14 01:00 11.19 13.33 75 7.65 49.3 46.4 1.30 191.0
2023-03-14 00:30 11.06 14.29 78 7.40 49.5 46.0 1.30 192.0
2023-03-14 00:00 11.45 13.33 74 7.58 49.5 45.7 1.36 190.0
2023-03-13 23:30 10.96 13.33 75 7.16 49.6 45.5 1.28 184.0
2023-03-13 23:00 11.42 13.33 71 7.28 49.6 46.2 1.28 181.0
2023-03-13 22:30 12.37 13.33 69 7.66 49.5 45.7 1.24 182.0
2023-03-13 22:00 11.88 14.29 84 7.78 49.3 46.2 1.50 177.0
2023-03-13 21:30 11.88 13.33 66 7.51 49.3 46.2 1.56 176.0
2023-03-13 21:00 11.55 13.33 72 7.06 49.5 45.9 1.34 181.0
2023-03-13 20:30 11.48 13.33 71 7.60 49.5 46.0 1.21 180.0
2023-03-13 20:00 11.09 12.50 62 7.22 49.3 46.2 0.97 171.0
2023-03-13 19:30 10.60 13.33 63 6.95 49.1 46.2 1.11 162.0
2023-03-13 19:00 11.52 13.33 73 7.74 49.1 46.4 1.13 169.0
2023-03-13 18:30 10.17 13.33 71 7.33 49.1 47.1 1.05 171.0
2023-03-13 18:00 11.38 12.50 63 7.95 49.1 47.8 0.87 174.0
2023-03-13 17:30 10.60 14.29 76 8.19 49.1 48.2 0.84 180.0
2023-03-13 17:00 11.09 13.33 66 8.75 49.1 48.4 0.74 181.0
2023-03-13 16:30 10.56 12.50 62 9.01 49.3 49.8 0.74 181.0
2023-03-13 16:00 10.47 11.76 64 9.16 49.3 51.1 0.74 186.0
2023-03-13 15:30 10.27 13.33 66 9.25 49.5 51.1 0.76 196.0
2023-03-13 15:00 11.55 13.33 63 9.82 49.5 51.1 0.84 211.0
2023-03-13 14:30 10.50 13.33 63 9.04 49.5 50.9 0.82 210.0
2023-03-13 14:00 11.22 13.33 65 9.63 49.5 51.1 0.87 203.0
2023-03-13 13:30 11.02 12.50 62 9.50 49.6 51.3 0.95 207.0
2023-03-13 13:00 10.07 13.33 64 9.08 49.6 51.1 0.91 209.0
2023-03-13 12:30 11.22 13.33 60 9.74 49.6 50.7 0.95 205.0
2023-03-13 12:00 10.86 13.33 58 9.61 49.6 50.5 0.95 203.0
2023-03-13 11:30 12.30 13.33 66 10.16 49.6 50.2 0.95 200.0
2023-03-13 11:00 10.63 13.33 60 9.34 49.6 49.6 0.99 199.0
2023-03-13 10:30 10.04 13.33 61 9.12 49.5 49.5 1.05 195.0
2023-03-13 10:00 9.81 14.29 71 9.05 49.6 49.3 0.97 189.0
2023-03-13 09:30 9.42 14.29 72 9.01 49.6 49.1 0.97 188.0
2023-03-13 09:00 9.58 13.33 62 9.26 49.6 48.7 0.87 181.0
2023-03-13 08:30 10.83 12.50 60 9.85 49.6 48.6 0.89 184.0
2023-03-13 08:00 9.48 13.33 65 9.49 49.8 48.2 0.82 179.0
2023-03-13 07:30 9.28 12.50 60 9.32 49.8 48.4 0.80 175.0
2023-03-13 07:00 9.32 13.33 63 9.55 49.8 48.4 0.78 174.0
2023-03-13 06:30 8.86 14.29 69 9.65 49.8 47.7 0.60 179.0
2023-03-13 06:00 9.22 14.29 68 9.62 49.8 47.1 0.60 179.0
2023-03-13 05:30 9.58 13.33 66 9.86 49.8 46.8 0.49 182.0
2023-03-13 05:00 9.38 13.33 65 9.94 49.8 46.6 0.54 184.0
2023-03-13 04:30 10.70 14.29 74 10.56 49.8 46.0 0.56 194.0
2023-03-13 04:00 8.96 14.29 72 9.81 50.0 45.9 0.56 188.0
2023-03-13 03:30 9.02 14.29 75 9.92 50.0 45.9 0.62 200.0
2023-03-13 03:00 9.19 14.29 71 9.96 50.0 45.1 0.64 200.0
2023-03-13 02:30 8.53 14.29 74 9.82 50.0 45.5 0.70 205.0
2023-03-13 02:00 9.88 14.29 75 10.52 50.0 0.82 207.0
2023-03-13 01:30 10.66 14.29 79 10.73 50.2 0.82 207.0
2023-03-13 01:00 10.63 15.38 80 10.69 50.2 43.5 0.91 200.0
2023-03-13 00:30 9.91 13.33 74 10.08 50.4 45.3 0.86 201.0
2023-03-13 00:00 11.29 14.29 79 11.20 50.4 45.7 1.01 201.0
2023-03-12 23:30 10.53 14.29 77 10.35 50.4 46.0 1.03 198.0
2023-03-12 23:00 12.27 14.29 77 10.90 50.5 45.9 1.03 197.0
2023-03-12 22:30 11.84 14.29 77 10.58 50.7 45.9 1.01 199.0
2023-03-12 22:00 11.22 14.29 75 10.45 50.7 45.7 0.97 195.0
2023-03-12 21:30 12.30 14.29 76 10.51 50.7 45.5 0.97 190.0
2023-03-12 21:00 11.32 14.29 76 10.19 50.9 45.3 1.03 182.0
2023-03-12 20:30 11.52 13.33 75 10.14 50.9 45.3 0.95 184.0
2023-03-12 20:00 10.40 13.33 74 9.83 51.1 45.3 0.91 180.0
2023-03-12 19:30 10.60 13.33 75 9.77 51.1 45.3 0.87 177.0
2023-03-12 19:00 10.37 13.33 71 9.83 51.1 45.3 0.78 179.0
2023-03-12 18:30 11.29 13.33 79 9.84 51.1 45.1 0.78 179.0
2023-03-12 18:00 12.50 14.29 75 10.15 51.3 45.3 0.80 177.0
2023-03-12 17:30 12.63 13.33 67 10.23 51.4 45.7 0.72 184.0
2023-03-12 17:00 11.02 13.33 68 9.52 51.3 45.7 0.64 191.0
2023-03-12 16:30 11.19 11.76 60 9.60 51.1 45.3 0.70 192.0
2023-03-12 16:00 11.45 11.76 58 9.71 51.1 45.1 0.76 189.0
2023-03-12 15:30 12.40 12.50 60 10.02 51.1 45.1 0.76 193.0
2023-03-12 15:00 10.76 12.50 58 9.54 51.1 45.0 0.78 202.0
2023-03-12 14:30 10.76 11.76 55 9.47 51.1 44.8 0.84 207.0
2023-03-12 14:00 11.09 12.50 61 9.58 51.1 44.6 0.80 207.0
2023-03-12 13:30 10.83 12.50 57 9.52 51.1 44.6 0.89 206.0
2023-03-12 13:00 11.52 12.50 57 9.47 51.1 44.4 0.87 193.0
2023-03-12 12:30 10.60 13.33 68 9.03 51.1 44.4 0.95 202.0
2023-03-12 12:00 11.15 12.50 62 8.99 51.1 44.2 1.01 200.0
2023-03-12 11:30 10.63 12.50 60 8.81 51.1 43.5 1.07 200.0
2023-03-12 11:00 11.02 12.50 65 8.69 51.1 43.7 1.03 195.0
2023-03-12 10:30 10.86 11.11 58 8.29 51.1 43.7 1.13 191.0
2023-03-12 10:00 11.02 11.76 55 8.59 51.1 44.1 1.11 189.0
2023-03-12 09:30 10.63 10.53 52 8.01 51.1 43.7 1.13 184.0
2023-03-12 09:00 9.71 11.76 62 7.80 51.1 43.7 1.09 174.0
2023-03-12 08:30 9.68 10.53 50 7.51 51.1 43.7 1.11 180.0
2023-03-12 08:00 10.93 10.53 54 7.72 51.1 43.7 1.01 174.0
2023-03-12 07:30 10.24 11.11 56 7.49 51.1 43.9 1.11 165.0
2023-03-12 07:00 10.63 11.11 57 7.51 51.3 44.1 1.07 172.0
2023-03-12 06:30 9.74 11.11 57 7.16 51.1 44.4 1.07 176.0
2023-03-12 06:00 10.20 14.29 74 7.25 51.3 44.2 1.03 176.0
2023-03-12 05:30 9.97 9.09 46 6.91 51.1 45.0 0.95 170.0
2023-03-12 05:00 10.37 9.88 52 6.94 51.1 45.1 0.97 172.0
2023-03-12 04:30 9.35 10.53 55 6.73 51.1 45.7 0.91 174.0
2023-03-12 04:00 9.68 9.09 47 6.71 51.1 46.0 0.84 188.0
2023-03-12 03:30 9.71 14.29 75 6.98 51.3 46.2 0.72 188.0
2023-03-12 03:00 9.45 13.33 70 6.69 51.3 46.2 0.74 196.0
2023-03-12 02:30 9.38 14.29 77 6.79 51.3 46.6 0.70 203.0
2023-03-12 02:00 9.28 14.29 73 6.53 51.3 46.6 0.89 195.0
2023-03-12 01:30 9.51 7.69 23 6.58 51.3 46.6 0.89 197.0
2023-03-12 01:00 9.71 7.69 22 6.56 51.4 46.2 0.99 197.0
2023-03-12 00:30 9.68 14.29 74 6.77 51.3 46.4 0.99 199.0
2023-03-12 00:00 10.40 14.29 69 6.76 51.3 46.2 0.95 193.0
2023-03-11 23:30 10.50 6.67 351 6.59 51.3 45.9 1.03 193.0
2023-03-11 23:00 10.73 7.69 25 6.78 51.1 45.7 1.03 193.0
2023-03-11 22:30 11.58 7.69 14 6.62 50.9 45.5 1.07 190.0
2023-03-11 22:00 11.12 8.33 23 6.54 50.9 45.1 1.13 183.0
2023-03-11 21:30 11.91 8.33 22 6.89 50.9 45.1 0.97 182.0
2023-03-11 21:00 11.78 7.14 340 6.65 50.7 45.0 0.93 175.0
2023-03-11 20:30 12.86 7.14 345 6.70 50.7 45.0 1.07 181.0
2023-03-11 20:00 11.98 7.14 344 6.69 50.7 44.8 1.09 176.0
2023-03-11 19:30 13.09 7.14 346 6.87 50.7 45.0 1.01 180.0
2023-03-11 19:00 12.60 7.14 343 6.66 50.9 44.8 1.09 172.0
2023-03-11 18:30 12.96 7.14 343 6.74 50.9 44.4 1.07 170.0
2023-03-11 18:00 12.07 7.14 339 6.48 50.9 44.4 1.01 161.0
2023-03-11 17:30 11.15 7.14 339 6.47 50.9 44.2 1.01 160.0
2023-03-11 17:00 10.99 7.14 342 6.49 51.1 43.9 0.93 174.0
2023-03-11 16:30 11.35 7.14 342 6.70 51.3 43.7 0.80 165.0
2023-03-11 16:00 11.22 7.14 339 6.46 51.4 44.2 0.91 165.0
2023-03-11 15:30 11.71 7.14 340 6.75 51.3 44.4 0.68 174.0
2023-03-11 15:00 11.94 7.14 334 6.68 51.3 44.2 0.86 175.0
2023-03-11 14:30 11.38 7.14 340 6.84 51.1 44.4 0.72 168.0
2023-03-11 14:00 10.50 14.29 70 6.57 51.1 44.6 0.74 177.0
2023-03-11 13:30 11.55 7.14 336 6.90 51.1 45.0 0.70 191.0
2023-03-11 13:00 11.19 13.33 73 6.69 51.1 44.8 0.97 176.0
2023-03-11 12:30 11.19 14.29 65 6.99 50.9 45.0 0.87 180.0
2023-03-11 12:00 11.32 6.67 324 6.82 50.9 45.0 0.89 173.0
2023-03-11 11:30 10.56 14.29 72 6.55 51.1 45.7 1.09 180.0
2023-03-11 11:00 10.76 6.25 324 6.45 51.1 46.0 1.15 183.0
2023-03-11 10:30 10.43 6.25 332 6.35 51.1 46.8 1.21 177.0
2023-03-11 10:00 10.30 13.33 69 6.62 51.1 47.3 1.26 178.0
2023-03-11 09:30 9.51 14.29 73 6.59 51.4 47.5 0.99 173.0
2023-03-11 09:00 8.73 12.50 71 6.40 51.6 47.5 0.97 171.0
2023-03-11 08:30 9.15 14.29 82 6.61 51.6 47.7 0.95 166.0
2023-03-11 08:00 8.66 13.33 79 6.58 51.8 48.0 0.82 161.0
2023-03-11 07:30 8.37 14.29 76 6.40 51.8 48.2 0.84 159.0
2023-03-11 07:00 8.46 12.50 66 6.84 51.8 48.4 0.97 156.0
2023-03-11 06:30 7.71 14.29 79 6.94 51.8 48.9 0.86 164.0
2023-03-11 06:00 7.84 14.29 76 7.42 52.0 49.5 0.82 147.0
2023-03-11 05:30 7.64 13.33 72 7.67 52.0 49.6 0.70 141.0
2023-03-11 05:00 7.22 14.29 75 7.59 52.0 50.0 0.66 142.0
2023-03-11 04:30 7.48 13.33 73 8.08 52.0 0.64 140.0
2023-03-11 04:00 6.53 15.38 80 8.23 52.0 49.6 0.51 135.0
2023-03-11 03:30 6.59 14.29 72 8.70 52.0 48.9 0.35 147.0
2023-03-11 03:00 6.79 14.29 73 9.72 52.0 50.7 0.16 183.0
2023-03-11 02:30 7.02 13.33 62 10.07 52.0 51.4 0.17 193.0
2023-03-11 02:00 7.74 11.76 69 10.33 52.0 51.8 0.23 227.0
2023-03-11 01:30 6.56 12.50 69 9.55 52.0 51.6 0.23 245.0
2023-03-11 01:00 7.32 14.29 73 9.98 52.0 50.9 0.31 231.0
2023-03-11 00:30 6.92 13.33 68 9.21 52.0 50.4 0.33 248.0
2023-03-11 00:00 6.82 13.33 72 8.83 52.0 49.6 0.35 233.0
2023-03-10 23:30 6.63 13.33 69 8.62 52.0 48.9 0.39 237.0
2023-03-10 23:00 6.79 13.33 73 8.82 52.0 48.4 0.41 223.0
2023-03-10 22:30 6.73 13.33 70 8.84 52.0 48.4 0.43 229.0
2023-03-10 22:00 6.73 13.33 67 9.10 52.0 50.5 0.43 227.0
2023-03-10 21:30 6.56 14.29 73 8.89 52.0 52.0 0.52 221.0
2023-03-10 21:00 6.82 11.76 71 9.04 51.4 51.6 0.52 208.0
2023-03-10 20:30 7.02 14.29 72 9.50 51.6 51.3 0.60 200.0
2023-03-10 20:00 6.00 14.29 68 9.21 51.6 50.7 0.64 194.0
2023-03-10 19:30 6.36 11.76 68 9.69 51.6 50.5 0.64 187.0
2023-03-10 19:00 6.66 12.50 70 9.79 51.6 50.2 0.66 189.0
2023-03-10 18:30 6.66 13.33 70 9.84 51.4 49.5 0.72 181.0
2023-03-10 18:00 6.69 13.33 69 9.88 51.3 49.6 0.68 177.0
2023-03-10 17:30 6.73 13.33 69 9.87 51.4 49.8 0.70 172.0
2023-03-10 17:00 6.46 12.50 69 9.84 51.4 49.8 0.58 165.0
2023-03-10 16:30 6.46 13.33 66 9.42 51.6 49.5 0.58 174.0
2023-03-10 16:00 6.46 11.76 65 9.48 51.6 49.8 0.60 181.0
2023-03-10 15:30 6.30 11.76 68 9.64 51.6 49.3 0.54 185.0
2023-03-10 15:00 6.76 12.50 70 9.80 51.6 48.9 0.51 193.0
2023-03-10 14:30 6.50 12.50 68 9.75 51.6 48.7 0.54 192.0
2023-03-10 14:00 6.43 11.76 65 9.41 51.6 48.2 0.49 199.0
2023-03-10 13:30 6.63 12.50 64 9.33 51.6 47.8 0.56 200.0
2023-03-10 13:00 6.50 12.50 61 9.41 51.4 48.2 0.54 187.0
2023-03-10 12:30 6.40 11.11 62 9.19 51.4 48.0 0.58 203.0
2023-03-10 12:00 6.92 13.33 71 9.43 51.4 47.8 0.70 211.0
2023-03-10 11:30 5.84 10.53 57 8.64 51.1 47.7 0.80 195.0
2023-03-10 11:00 5.87 11.11 64 8.66 50.9 47.8 0.84 202.0
2023-03-10 10:30 5.68 11.11 64 8.20 50.9 47.8 0.97 197.0
2023-03-10 10:00 5.51 11.76 75 8.03 50.9 47.8 1.09 194.0
2023-03-10 09:30 5.94 11.11 69 8.29 50.9 47.8 1.13 196.0
2023-03-10 09:00 5.91 11.76 74 8.34 51.6 48.0 0.84 201.0
2023-03-10 08:30 6.17 11.11 71 8.33 51.6 48.0 0.86 194.0
2023-03-10 08:00 5.97 12.50 71 8.19 51.6 47.8 0.87 191.0
2023-03-10 07:30 5.94 11.76 69 8.13 51.8 47.8 0.91 185.0
2023-03-10 07:00 6.33 11.76 69 8.00 52.0 47.5 0.97 183.0
2023-03-10 06:30 6.17 10.53 61 7.84 52.0 47.3 0.97 180.0
2023-03-10 06:00 5.91 11.11 62 7.42 52.3 47.5 0.80 173.0
2023-03-10 05:30 6.00 11.76 68 7.63 52.5 47.1 0.84 175.0
2023-03-10 05:00 6.46 11.11 70 7.65 52.5 46.8 0.86 172.0
2023-03-10 04:30 6.14 11.76 71 7.20 52.5 46.6 0.80 180.0
2023-03-10 04:00 6.17 9.88 63 6.99 52.7 46.8 0.78 187.0
2023-03-10 03:30 6.20 9.88 60 7.15 52.5 46.8 0.76 186.0
2023-03-10 03:00 6.27 9.88 61 6.86 52.5 47.1 0.86 185.0
2023-03-10 02:30 6.33 9.88 67 6.82 52.5 47.8 0.84 188.0
2023-03-10 02:00 6.43 10.53 71 6.69 52.5 48.0 0.89 194.0
2023-03-10 01:30 6.40 9.88 64 6.60 52.3 48.0 0.80 194.0
2023-03-10 01:00 6.56 10.53 65 6.46 52.3 47.8 0.86 194.0
2023-03-10 00:30 6.53 10.53 65 6.28 52.7 47.5 0.80 200.0
2023-03-10 00:00 6.63 9.88 59 6.40 51.6 47.1 0.86 206.0
2023-03-09 23:30 6.50 10.53 67 6.36 51.4 46.6 0.82 202.0
2023-03-09 23:00 6.76 7.69 37 6.40 51.4 46.6 1.03 199.0
2023-03-09 22:30 5.91 9.09 51 5.92 51.1 46.4 1.05 199.0
2023-03-09 22:00 6.66 10.53 66 6.45 50.9 46.9 0.93 186.0
2023-03-09 21:30 6.99 11.11 72 6.22 50.9 46.6 1.11 183.0
2023-03-09 21:00 6.79 9.09 59 6.08 50.9 46.2 1.24 183.0
2023-03-09 20:30 7.25 11.11 67 6.26 50.9 45.7 1.28 183.0
2023-03-09 20:00 6.96 9.09 57 6.27 50.9 45.3 1.36 181.0
2023-03-09 19:30 6.76 7.14 39 6.14 50.9 44.4 1.42 177.0
2023-03-09 19:00 6.66 9.09 57 6.33 51.3 43.7 1.50 177.0
2023-03-09 18:30 6.86 7.69 46 6.06 51.6 43.2 1.30 175.0
2023-03-09 18:00 7.12 7.14 34 6.01 52.0 43.3 1.11 173.0
2023-03-09 17:30 7.35 7.14 36 6.14 52.2 43.2 1.07 168.0
2023-03-09 17:00 7.25 7.14 35 5.88 52.5 43.5 0.95 166.0
2023-03-09 16:30 7.15 7.14 39 5.69 52.7 44.2 0.95 170.0
2023-03-09 16:00 7.32 7.14 36 5.78 52.9 44.1 0.89 168.0
2023-03-09 15:30 7.55 6.67 32 5.86 53.1 44.1 0.82 172.0
2023-03-09 15:00 7.15 7.14 38 5.64 52.9 44.8 0.80 183.0
2023-03-09 14:30 7.32 7.14 38 5.68 52.9 44.8 0.64 184.0
2023-03-09 14:00 6.96 7.14 34 5.56 52.9 44.6 0.76 184.0
2023-03-09 13:30 7.15 7.14 32 5.46 52.9 44.2 0.86 196.0
2023-03-09 13:00 7.12 7.14 33 5.40 52.7 44.8 0.82 196.0
2023-03-09 12:30 7.22 7.14 31 5.53 52.5 45.3 0.86 210.0
2023-03-09 12:00 7.19 7.14 30 5.49 52.2 45.1 0.84 199.0
2023-03-09 11:30 7.15 7.69 34 5.49 52.2 45.0 0.84 208.0
2023-03-09 11:00 6.79 7.14 34 5.20 52.0 45.0 0.82 211.0
2023-03-09 10:30 7.22 7.14 28 5.47 52.0 45.0 1.01 200.0
2023-03-09 10:00 7.41 7.14 30 5.53 52.0 45.0 1.07 202.0
2023-03-09 09:30 6.92 7.14 31 5.24 52.0 45.3 1.11 189.0
2023-03-09 09:00 7.38 7.14 26 5.36 52.0 45.7 1.03 186.0
2023-03-09 08:30 7.19 7.14 33 5.30 52.0 45.5 1.11 187.0
2023-03-09 08:00 7.68 7.69 32 5.48 52.0 45.9 1.13 195.0
2023-03-09 07:30 7.94 7.69 31 5.54 52.0 46.4 1.21 192.0
2023-03-09 07:00 7.74 7.69 33 5.56 52.0 46.8 1.13 184.0
2023-03-09 06:30 8.14 8.33 42 5.64 52.0 46.8 1.19 178.0
2023-03-09 06:00 8.40 7.14 26 5.65 52.0 46.9 1.21 176.0
2023-03-09 05:30 8.33 8.33 35 5.66 52.2 47.1 1.11 171.0
2023-03-09 05:00 8.01 8.33 35 5.53 52.3 47.5 1.15 167.0
2023-03-09 04:30 8.23 7.69 33 5.71 52.3 47.7 1.11 168.0
2023-03-09 04:00 8.83 8.33 37 5.82 52.5 48.0 1.05 172.0
2023-03-09 03:30 8.89 8.33 37 6.03 52.5 47.8 1.15 173.0
2023-03-09 03:00 8.10 8.33 34 5.69 52.5 48.2 1.03 175.0
2023-03-09 02:30 8.66 8.33 34 5.94 52.5 48.4 0.95 175.0
2023-03-09 02:00 8.60 8.33 34 6.04 52.3 47.7 0.95 183.0
2023-03-09 01:30 8.23 7.69 28 5.82 52.3 47.3 0.95 180.0
2023-03-09 01:00 8.86 8.33 34 6.08 52.3 47.5 1.01 188.0
2023-03-09 00:30 8.60 8.33 34 5.83 52.2 48.0 1.09 179.0
2023-03-09 00:00 8.92 8.33 32 5.85 52.0 47.7 1.17 190.0
2023-03-08 23:30 9.19 8.33 32 5.87 51.6 47.5 1.09 192.0
2023-03-08 23:00 8.99 8.33 31 5.84 51.1 46.9 0.99 183.0
2023-03-08 22:30 8.76 7.69 31 5.67 51.1 47.1 1.21 186.0
2023-03-08 22:00 8.66 7.69 26 5.71 50.9 46.9 1.42 189.0
2023-03-08 21:30 8.23 8.33 28 5.82 50.7 46.6 1.38 192.0
2023-03-08 21:00 8.30 9.09 27 5.72 50.5 46.2 1.09 196.0
2023-03-08 20:30 8.96 8.33 25 5.94 50.5 45.9 1.32 188.0
2023-03-08 20:00 9.58 8.33 27 6.15 50.4 45.7 1.32 184.0
2023-03-08 19:30 9.19 8.33 29 6.03 50.4 45.0 1.32 176.0
2023-03-08 19:00 9.22 8.33 30 5.96 50.5 44.4 1.54 180.0
2023-03-08 18:30 9.25 8.33 28 6.14 50.7 43.5 1.44 178.0
2023-03-08 18:00 9.94 9.09 35 6.31 51.1 43.0 1.42 175.0
2023-03-08 17:30 9.35 8.33 29 5.93 51.4 42.8 1.40 177.0
2023-03-08 17:00 10.07 8.33 34 5.99 52.0 42.1 1.38 171.0
2023-03-08 16:30 10.47 8.33 28 6.14 52.2 41.7 1.38 179.0
2023-03-08 16:00 10.37 7.69 16 6.09 52.0 41.9 1.30 166.0
2023-03-08 15:30 10.27 8.33 25 6.16 52.0 41.5 1.32 176.0
2023-03-08 15:00 10.56 9.09 33 6.14 51.8 41.4 1.05 173.0
2023-03-08 14:30 11.29 8.33 24 6.29 51.6 42.1 1.17 170.0
2023-03-08 14:00 11.42 9.09 31 6.39 51.6 41.2 1.13 176.0
2023-03-08 13:30 11.58 8.33 21 6.36 51.6 41.0 1.07 185.0
2023-03-08 13:00 11.81 9.09 30 6.51 51.4 41.5 0.93 181.0
2023-03-08 12:30 11.52 8.33 25 6.38 51.1 40.8 0.91 189.0
2023-03-08 12:00 11.32 9.88 32 6.35 50.7 41.0 1.03 194.0
2023-03-08 11:30 11.15 9.88 31 6.32 50.4 41.0 0.87 189.0
2023-03-08 11:00 12.04 9.09 31 6.67 50.0 41.7 0.93 193.0
2023-03-08 10:30 12.24 8.33 19 6.55 49.8 41.9 1.01 196.0
2023-03-08 10:00 11.25 8.33 23 6.58 49.5 42.1 1.05 191.0
2023-03-08 09:30 11.32 8.33 23 6.21 49.5 42.6 1.13 198.0
2023-03-08 09:00 10.27 8.33 21 6.02 49.5 43.0 1.09 189.0
2023-03-08 08:30 11.45 7.69 11 6.19 49.5 43.2 1.03 189.0
2023-03-08 08:00 11.12 8.33 20 6.17 49.5 43.3 1.05 182.0
2023-03-08 07:30 11.45 7.14 2 6.20 49.5 44.1 1.22 188.0
2023-03-08 07:00 10.66 7.69 9 5.84 49.5 45.0 0.95 180.0
2023-03-08 06:30 10.96 7.69 19 5.87 49.5 45.5 0.91 184.0
2023-03-08 06:00 10.56 7.14 9 5.87 49.5 46.4 1.30 175.0
2023-03-08 05:30 9.78 7.69 20 5.64 49.5 46.9 0.95 174.0
2023-03-08 05:00 9.97 6.67 9 5.64 49.6 47.5 0.87 157.0
2023-03-08 04:30 9.15 7.14 22 5.53 49.8 48.0 0.89 160.0
2023-03-08 04:00 9.02 6.67 17 5.38 49.8 48.2 0.80 159.0
2023-03-08 03:30 8.83 6.67 19 5.47 49.8 48.7 0.72 152.0
2023-03-08 03:00 8.14 6.25 347 5.32 50.0 48.9 0.76 163.0
2023-03-08 02:30 8.01 6.67 5 5.38 50.0 49.3 0.62 169.0
2023-03-08 02:00 7.61 6.67 0 5.30 50.0 49.6 0.60 187.0
2023-03-08 01:30 7.22 7.14 20 5.27 50.0 49.5 0.56 182.0
2023-03-08 01:00 8.01 6.67 6 5.61 50.0 49.5 0.58 189.0
2023-03-08 00:30 8.04 6.67 352 5.43 49.8 49.6 0.54 195.0
2023-03-08 00:00 7.87 6.67 359 5.43 49.8 49.6 0.58 196.0
2023-03-07 23:30 7.91 7.14 11 5.48 49.8 49.3 0.68 196.0
2023-03-07 23:00 8.04 7.14 17 5.53 49.8 49.3 0.68 211.0
2023-03-07 22:30 7.84 7.14 17 5.31 49.6 50.0 0.82 197.0
2023-03-07 22:00 7.68 6.67 14 5.40 49.6 49.6 0.76 198.0
2023-03-07 21:30 7.71 6.67 12 5.31 49.8 49.6 0.78 197.0
2023-03-07 21:00 8.27 6.67 18 5.27 49.6 49.3 0.68 195.0
2023-03-07 20:30 7.51 6.67 17 5.12 49.6 48.7 0.74 188.0
2023-03-07 20:00 7.55 6.67 11 5.03 49.6 48.6 0.78 181.0
2023-03-07 19:30 7.38 6.25 5 4.97 49.6 48.0 0.70 181.0
2023-03-07 19:00 6.86 5.88 354 4.80 49.6 47.8 0.78 174.0
2023-03-07 18:30 6.33 5.88 359 4.60 49.5 47.8 0.80 169.0
2023-03-07 18:00 6.27 5.56 349 4.59 49.5 47.3 0.74 163.0
2023-03-07 17:30 6.63 5.88 351 4.72 49.5 46.6 0.70 161.0
2023-03-07 17:00 6.76 5.88 351 4.61 49.5 46.2 0.84 155.0
2023-03-07 16:30 6.10 5.00 340 4.54 49.5 46.4 0.87 150.0
2023-03-07 16:00 5.87 5.26 345 4.37 49.5 46.0 0.82 139.0
2023-03-07 15:30 5.77 5.00 336 4.18 49.5 46.2 0.72 139.0
2023-03-07 15:00 5.64 4.76 316 4.11 49.5 47.1 0.78 139.0
2023-03-07 14:30 5.02 4.35 305 3.93 49.5 48.9 0.60 120.0
2023-03-07 14:00 4.27 5.26 233 3.86 49.5 49.6 0.66 107.0
2023-03-07 13:30 4.20 5.00 234 3.97 49.5 50.4 0.64 112.0
2023-03-07 13:00 4.17 4.76 240 3.99 49.5 51.8 0.60 102.0
2023-03-07 12:30 4.17 4.76 233 4.14 49.8 51.3 0.54 92.0
2023-03-07 12:00 4.40 4.55 238 4.14 49.8 53.2 0.35 92.0
2023-03-07 11:30 4.30 4.76 231 4.10 49.6 53.1 0.39 72.0
2023-03-07 11:00 4.40 4.35 225 3.98 49.6 53.4 0.27 56.0
2023-03-07 10:30 4.17 4.17 217 4.01 49.6 53.6 0.33 74.0
2023-03-07 10:00 3.77 3.85 206 3.85 49.6 53.8 0.33 72.0
2023-03-07 09:30 3.64 3.85 201 3.96 49.5 53.4 0.16 59.0
2023-03-07 09:00 3.22 9.88 75 3.96 49.5 53.2 0.25 89.0
2023-03-07 08:30 2.99 9.88 74 4.49 49.5 52.9 0.16 89.0
2023-03-07 08:00 2.79 9.88 81 4.55 49.5 52.5 0.21 124.0
2023-03-07 07:30 2.89 9.88 76 5.31 49.5 52.0 0.16 140.0
2023-03-07 07:00 2.69 9.88 81 5.36 49.5 51.6 0.21 116.0
2023-03-07 06:30 2.79 10.53 79 5.64 49.6 51.6 0.29 125.0
2023-03-07 06:00 2.89 10.53 76 5.80 49.8 51.6 0.29 113.0
2023-03-07 05:30 2.95 9.88 78 5.82 49.8 52.2 0.33 102.0
2023-03-07 05:00 3.12 9.88 73 5.96 50.4 51.3 0.43 107.0
2023-03-07 04:30 3.38 11.11 75 6.06 50.7 51.3 0.37 96.0
2023-03-07 04:00 3.18 11.11 72 5.80 50.2 51.1 0.35 81.0
2023-03-07 03:30 3.31 9.88 71 5.99 50.2 51.3 0.21 92.0
2023-03-07 03:00 3.22 9.88 70 5.92 50.7 51.3 0.23 99.0
2023-03-07 02:30 3.35 10.53 72 6.11 51.1 50.9 0.14 82.0
2023-03-07 02:00 3.41 11.11 68 6.63 51.3 50.7 0.06 71.0
2023-03-07 01:30 3.28 10.53 69 6.59 51.3 50.4 0.08 65.0
2023-03-07 01:00 3.25 10.53 73 6.67 51.3 50.4 0.06 258.0
2023-03-07 00:30 3.54 10.53 67 7.30 51.4 50.0 0.16 253.0
2023-03-07 00:00 3.67 10.53 67 7.57 51.3 49.8 0.19 252.0
2023-03-06 23:30 4.00 11.11 66 7.78 51.1 49.6 0.27 244.0
2023-03-06 23:00 3.77 11.11 67 7.59 51.3 49.5 0.47 242.0
2023-03-06 22:30 3.38 10.53 69 7.32 51.3 48.9 0.49 226.0
2023-03-06 22:00 3.81 10.53 67 7.64 50.4 48.2 0.49 224.0
2023-03-06 21:30 4.04 10.53 66 8.02 51.4 48.4 0.66 217.0
2023-03-06 21:00 3.84 11.11 72 7.94 50.0 48.7 0.52 226.0
2023-03-06 20:30 4.04 11.11 70 7.97 50.5 48.9 0.72 218.0
2023-03-06 20:00 4.33 11.11 72 8.39 50.5 48.9 0.80 209.0
2023-03-06 19:30 4.00 11.11 71 8.00 49.6 48.9 0.84 206.0
2023-03-06 19:00 3.74 11.11 74 7.60 49.8 49.1 0.95 203.0
2023-03-06 18:30 3.87 11.11 72 7.69 50.0 49.1 1.03 200.0
2023-03-06 18:00 3.77 11.76 74 7.55 50.0 49.3 1.01 195.0
2023-03-06 17:30 3.74 11.76 76 7.58 50.0 49.5 1.05 191.0
2023-03-06 17:00 3.48 11.11 70 6.93 49.8 49.6 0.95 187.0
2023-03-06 16:30 3.51 11.11 65 6.54 49.6 50.0 0.91 177.0
2023-03-06 16:00 3.58 10.53 63 6.41 49.6 50.2 0.89 177.0
2023-03-06 15:30 3.64 11.11 62 6.49 49.6 50.4 0.82 176.0
2023-03-06 15:00 4.23 11.11 59 6.93 49.5 50.7 0.82 176.0
2023-03-06 14:30 3.84 11.76 67 6.94 49.5 50.9 0.82 182.0
2023-03-06 14:00 4.30 11.11 61 7.28 49.3 51.1 0.74 187.0
2023-03-06 13:30 4.20 11.76 65 7.28 49.3 51.4 0.74 189.0
2023-03-06 13:00 4.13 11.11 63 7.43 49.3 51.3 0.66 192.0
2023-03-06 12:30 4.23 11.76 64 7.79 49.5 51.6 0.74 195.0
2023-03-06 12:00 4.53 10.53 61 8.85 49.5 51.1 0.72 202.0
2023-03-06 11:30 4.07 11.11 59 8.74 49.5 48.9 0.74 208.0
2023-03-06 11:00 4.07 11.76 61 8.67 49.5 48.2 0.72 209.0
2023-03-06 10:30 4.23 11.11 61 8.83 49.5 48.0 0.74 210.0
2023-03-06 10:00 4.17 11.11 57 8.65 49.5 48.4 0.76 215.0
2023-03-06 09:30 3.94 10.53 61 8.58 49.6 48.2 0.76 213.0
2023-03-06 09:00 4.04 10.53 65 8.60 49.6 48.4 0.82 213.0
2023-03-06 08:30 4.27 11.76 66 8.96 49.8 48.6 0.82 210.0
2023-03-06 08:00 4.33 11.11 69 8.81 50.0 49.1 0.91 199.0
2023-03-06 07:30 4.33 11.11 67 8.47 50.0 48.9 0.95 194.0
2023-03-06 07:00 4.56 11.11 67 8.72 50.0 49.5 0.97 188.0
2023-03-06 06:30 4.27 11.11 65 8.26 50.0 49.8 0.95 186.0
2023-03-06 06:00 4.66 11.11 68 8.43 50.0 49.3 0.99 185.0
2023-03-06 05:30 4.95 10.53 60 8.40 50.4 49.5 0.91 182.0
2023-03-06 05:00 4.56 11.11 64 7.89 50.4 49.6 0.95 178.0
2023-03-06 04:30 4.72 10.53 65 8.04 50.5 49.6 0.95 166.0
2023-03-06 04:00 5.12 11.11 66 8.60 50.7 49.8 0.91 158.0
2023-03-06 03:30 5.74 11.11 63 8.67 50.7 50.0 0.87 162.0
2023-03-06 03:00 5.84 10.53 60 8.63 50.9 49.8 0.86 157.0
2023-03-06 02:30 5.71 11.11 67 8.99 51.1 50.0 0.89 158.0
2023-03-06 02:00 5.48 11.11 70 8.83 51.3 49.8 0.70 161.0
2023-03-06 01:30 5.48 11.11 71 8.76 51.3 49.8 0.66 172.0
2023-03-06 01:00 5.41 11.11 74 8.79 51.1 49.6 0.54 165.0
2023-03-06 00:30 5.58 11.11 65 8.74 50.5 49.5 0.43 161.0
2023-03-06 00:00 5.15 10.53 70 8.47 50.5 49.1 0.45 166.0
2023-03-05 23:30 4.95 11.11 67 8.89 50.9 48.9 0.82 183.0
2023-03-05 23:00 4.49 11.11 62 8.58 50.9 48.7 0.91 194.0
2023-03-05 22:30 4.66 10.53 66 8.77 50.7 49.5 1.07 196.0
2023-03-05 22:00 4.79 10.53 60 8.69 50.9 49.6 1.24 197.0
2023-03-05 21:30 4.59 10.53 61 8.42 50.9 49.5 1.28 194.0
2023-03-05 21:00 4.53 11.11 57 8.15 50.7 49.3 1.22 192.0
2023-03-05 20:30 4.13 11.11 56 7.72 50.9 49.1 1.24 188.0
2023-03-05 20:00 3.81 9.88 52 7.10 50.5 48.7 1.28 185.0
2023-03-05 19:30 3.71 10.53 61 6.75 50.7 48.6 1.21 180.0
2023-03-05 19:00 3.94 6.25 29 6.42 50.5 48.2 1.22 180.0
2023-03-05 18:30 3.74 9.09 69 6.08 50.5 47.7 1.32 179.0
2023-03-05 18:00 3.84 6.25 39 6.00 50.4 47.5 1.32 176.0
2023-03-05 17:30 3.67 6.25 28 5.82 50.4 47.3 1.30 181.0
2023-03-05 17:00 3.74 10.53 66 5.76 50.4 46.9 1.26 181.0
2023-03-05 16:30 3.74 6.25 35 5.53 50.4 46.9 0.99 173.0
2023-03-05 16:00 3.90 5.88 36 5.37 50.4 46.9 1.03 175.0
2023-03-05 15:30 3.61 5.88 31 5.09 50.4 46.9 1.15 172.0
2023-03-05 15:00 3.94 6.25 26 5.21 50.9 47.1 0.93 169.0
2023-03-05 14:30 3.81 5.56 23 5.04 51.1 47.5 0.84 177.0
2023-03-05 14:00 4.20 6.25 24 5.04 51.4 47.7 0.72 182.0
2023-03-05 13:30 4.17 6.25 22 5.00 51.6 47.8 0.70 187.0
2023-03-05 13:00 4.40 6.25 22 5.06 51.4 48.0 0.72 190.0
2023-03-05 12:30 4.66 6.25 21 5.12 51.3 48.4 0.82 197.0
2023-03-05 12:00 4.56 6.25 19 5.06 51.1 48.0 0.80 199.0
2023-03-05 11:30 4.36 6.25 19 4.86 50.7 47.7 0.76 205.0
2023-03-05 11:00 4.59 6.67 20 4.82 50.4 47.5 0.86 197.0
2023-03-05 10:30 4.63 6.67 22 4.85 50.2 47.5 0.95 201.0
2023-03-05 10:00 4.86 6.67 19 4.87 50.0 47.5 0.93 195.0
2023-03-05 09:30 5.05 6.67 19 4.73 50.0 47.3 0.95 195.0
2023-03-05 09:00 5.15 7.14 26 4.76 49.6 47.5 0.84 196.0
2023-03-05 08:30 5.22 6.25 21 4.68 49.6 47.5 0.80 201.0
2023-03-05 08:00 5.12 7.14 31 4.79 49.6 47.5 0.80 201.0
2023-03-05 07:30 4.82 7.14 32 4.66 49.5 47.7 0.87 194.0
2023-03-05 07:00 5.05 6.25 34 4.73 49.5 48.0 0.95 193.0
2023-03-05 06:30 4.66 5.00 3 4.56 49.5 48.0 0.86 196.0
2023-03-05 06:00 4.56 9.09 164 4.52 49.5 48.2 0.84 198.0
2023-03-05 05:30 4.27 8.33 157 4.64 49.5 48.6 0.76 195.0
2023-03-05 05:00 4.33 9.09 171 4.56 49.5 48.9 0.80 191.0
2023-03-05 04:30 4.43 5.26 340 4.68 49.5 49.8 0.78 194.0
2023-03-05 04:00 4.86 5.26 348 4.87 49.5 49.6 0.78 191.0
2023-03-05 03:30 5.09 9.09 171 4.90 49.5 50.4 0.78 202.0
2023-03-05 03:00 5.48 5.56 359 4.72 49.5 51.6 0.70 191.0
2023-03-05 02:30 5.51 5.26 356 4.90 49.5 51.3 0.72 188.0
2023-03-05 02:00 5.81 9.09 165 5.16 49.5 51.6 0.84 197.0
2023-03-05 01:30 5.28 9.09 166 5.05 49.6 52.0 0.70 210.0
2023-03-05 01:00 4.69 8.33 181 5.14 49.6 51.6 0.74 216.0
2023-03-05 00:30 4.40 8.33 177 5.58 49.6 51.4 0.82 220.0
2023-03-05 00:00 4.76 7.14 178 5.94 49.6 51.6 0.86 221.0
2023-03-04 23:30 4.40 7.69 175 6.03 49.6 50.5 0.86 218.0
2023-03-04 23:00 4.66 7.69 175 5.86 49.5 50.4 0.86 213.0
2023-03-04 22:30 5.09 7.69 174 6.30 49.6 51.4 0.93 210.0
2023-03-04 22:00 5.25 8.33 166 6.25 49.6 52.0 0.97 207.0
2023-03-04 21:30 5.41 8.33 169 6.24 49.5 52.2 1.01 206.0
2023-03-04 21:00 5.77 8.33 169 6.38 49.6 52.2 0.97 202.0
2023-03-04 20:30 6.10 9.09 167 6.40 49.6 52.3 1.05 192.0
2023-03-04 20:00 6.23 8.33 165 6.48 49.8 52.0 1.07 180.0
2023-03-04 19:30 6.82 8.33 167 6.60 49.8 52.0 1.07 177.0
2023-03-04 19:00 6.73 9.09 160 6.50 49.8 52.0 0.91 172.0
2023-03-04 18:30 7.05 9.09 166 6.35 50.0 52.2 0.82 168.0
2023-03-04 18:00 6.96 8.33 168 6.14 49.8 51.8 0.78 162.0
2023-03-04 17:30 7.74 8.33 172 6.37 49.8 52.0 0.86 158.0
2023-03-04 17:00 8.04 9.09 168 6.48 49.6 53.2 0.91 155.0
2023-03-04 16:30 7.78 8.33 170 6.52 49.5 54.0 0.82 149.0
2023-03-04 16:00 7.68 8.33 168 6.60 49.5 54.0 0.86 139.0
2023-03-04 15:30 7.71 8.33 165 6.93 50.0 54.1 0.72 124.0
2023-03-04 15:00 7.48 8.33 157 6.66 50.0 52.5 0.82 119.0
2023-03-04 14:30 8.04 8.33 165 6.78 50.0 53.2 0.64 102.0
2023-03-04 14:00 7.97 8.33 163 6.55 50.0 54.7 0.62 93.0
2023-03-04 13:30 7.94 8.33 162 6.38 50.0 55.4 0.66 74.0
2023-03-04 13:00 8.46 8.33 164 6.46 50.0 55.9 0.60 74.0
2023-03-04 12:30 8.37 8.33 152 6.29 50.0 55.9 0.54 61.0
2023-03-04 12:00 8.92 8.33 157 6.44 50.0 55.6 0.56 60.0
2023-03-04 11:30 9.25 8.33 135 6.45 50.0 54.9 0.54 53.0
2023-03-04 11:00 8.40 7.69 141 6.09 50.0 56.5 0.51 46.0
2023-03-04 10:30 8.76 8.33 125 6.19 50.0 56.5 0.41 28.0
2023-03-04 10:00 9.38 8.33 116 6.25 50.0 56.1 0.43 35.0
2023-03-04 09:30 9.02 6.25 188 6.01 50.0 56.8 0.39 31.0
2023-03-04 09:00 9.55 8.33 118 6.06 50.0 0.45 23.0
2023-03-04 08:30 9.65 8.33 114 6.09 50.0 0.23 28.0
2023-03-04 08:00 10.10 8.33 111 6.41 50.0 58.3 0.10 359.0
2023-03-04 07:30 9.61 9.09 108 6.43 50.0 58.5 0.02 35.0
2023-03-04 07:00 9.45 8.33 124 6.31 50.0 59.2 0.14 323.0
2023-03-04 06:30 9.48 8.33 120 6.22 50.0 59.9 0.04 220.0
2023-03-04 06:00 9.28 8.33 117 6.30 50.0 59.0 0.10 206.0
2023-03-04 05:30 8.73 8.33 121 6.21 50.0 58.5 0.17 181.0
2023-03-04 05:00 8.83 7.69 105 6.15 50.0 58.8 0.17 175.0
2023-03-04 04:30 8.46 7.69 113 6.14 50.0 58.5 0.23 189.0
2023-03-04 04:00 8.07 7.69 105 6.07 50.0 57.4 0.25 182.0
2023-03-04 03:30 8.76 7.69 110 6.11 50.0 57.7 0.19 153.0
2023-03-04 03:00 8.63 7.69 113 6.02 50.0 58.3 0.21 187.0
2023-03-04 02:30 7.97 6.67 103 5.77 50.0 58.3 0.12 207.0
2023-03-04 02:00 8.23 7.14 112 5.71 50.0 58.1 0.21 173.0
2023-03-04 01:30 7.74 7.14 123 5.80 50.0 57.0 0.23 186.0
2023-03-04 01:00 7.94 6.67 107 5.82 50.2 56.7 0.29 207.0
2023-03-04 00:30 6.79 6.25 97 5.41 50.2 57.0 0.16 188.0
2023-03-04 00:00 6.50 6.25 92 5.35 50.2 57.7 0.31 237.0
2023-03-03 23:30 6.66 5.56 103 5.22 50.2 55.9 0.37 246.0
2023-03-03 23:00 6.23 5.56 84 5.29 50.2 55.8 0.47 236.0
2023-03-03 22:30 5.87 5.88 74 5.07 50.2 55.9 0.52 243.0
2023-03-03 22:00 5.61 11.76 90 5.09 50.2 55.4 0.49 232.0
2023-03-03 21:30 5.84 11.11 91 5.13 50.2 55.0 0.70 235.0
2023-03-03 21:00 5.58 10.53 87 5.14 50.2 54.7 0.66 225.0
2023-03-03 20:30 5.58 6.25 62 5.22 50.2 54.7 0.64 225.0
2023-03-03 20:00 5.51 5.88 43 5.21 50.2 54.7 0.70 220.0
2023-03-03 19:30 5.45 10.53 85 5.17 50.2 54.1 0.72 218.0
2023-03-03 19:00 5.71 5.56 48 5.22 50.2 53.2 0.74 213.0
2023-03-03 18:30 5.64 6.25 60 5.07 50.2 53.1 0.76 211.0
2023-03-03 18:00 5.97 5.88 45 5.12 50.0 52.7 0.74 208.0
2023-03-03 17:30 6.00 5.26 51 5.24 50.0 52.9 0.74 203.0
2023-03-03 17:00 5.94 5.56 61 5.14 50.0 52.9 0.68 197.0
2023-03-03 16:30 5.81 11.11 86 5.42 50.0 54.0 0.66 188.0
2023-03-03 16:00 5.71 11.11 88 5.32 50.0 53.1 0.68 186.0
2023-03-03 15:30 5.41 11.76 75 5.34 50.0 53.2 0.62 178.0
2023-03-03 15:00 5.02 11.11 89 5.36 50.0 52.3 0.54 168.0
2023-03-03 14:30 4.99 11.76 83 5.43 50.0 0.47 169.0
2023-03-03 14:00 4.79 11.76 79 6.15 50.0 52.2 0.39 157.0
2023-03-03 13:30 4.53 12.50 81 6.50 50.0 52.5 0.43 143.0
2023-03-03 13:00 4.17 11.76 83 6.60 50.0 53.4 0.41 148.0
2023-03-03 12:30 4.49 11.76 88 7.24 50.0 53.4 0.33 153.0
2023-03-03 12:00 4.79 11.76 88 7.55 50.0 53.2 0.35 147.0
2023-03-03 11:30 4.63 12.50 86 7.39 50.2 53.4 0.31 156.0
2023-03-03 11:00 4.72 12.50 93 7.82 50.0 52.9 0.23 163.0
2023-03-03 10:30 4.59 12.50 86 7.75 50.0 52.5 0.19 188.0
2023-03-03 10:00 4.99 11.76 88 7.89 50.0 52.5 0.17 231.0
2023-03-03 09:30 4.92 12.50 90 7.84 50.0 52.9 0.23 226.0
2023-03-03 09:00 4.92 11.76 78 7.79 50.0 52.0 0.39 231.0
2023-03-03 08:30 4.86 12.50 89 7.48 50.0 52.2 0.49 233.0
2023-03-03 08:00 4.66 13.33 87 7.49 50.0 52.5 0.52 236.0
2023-03-03 07:30 4.86 12.50 81 7.53 50.0 52.7 0.64 236.0
2023-03-03 07:00 5.02 12.50 88 7.79 50.0 52.7 0.78 237.0
2023-03-03 06:30 5.09 12.50 83 7.83 50.0 52.5 0.78 237.0
2023-03-03 06:00 5.41 13.33 93 7.88 50.0 52.5 0.56 220.0
2023-03-03 05:30 5.12 12.50 81 7.91 49.8 52.2 0.60 226.0
2023-03-03 05:00 5.48 12.50 83 8.30 49.8 51.4 0.66 229.0
2023-03-03 04:30 5.45 12.50 89 8.01 49.8 51.1 0.64 229.0
2023-03-03 04:00 5.28 12.50 87 7.89 49.8 51.1 0.62 215.0
2023-03-03 03:30 5.28 11.76 74 7.68 49.6 50.7 0.68 214.0
2023-03-03 03:00 5.35 11.76 67 7.83 49.6 50.7 0.68 212.0
2023-03-03 02:30 6.00 12.50 79 8.12 49.5 51.3 0.76 207.0
2023-03-03 02:00 5.35 12.50 82 8.03 49.3 50.5 0.80 207.0
2023-03-03 01:30 5.51 11.76 74 8.37 49.3 50.5 0.84 200.0
2023-03-03 01:00 5.58 12.50 75 8.53 49.1 50.5 0.86 202.0
2023-03-03 00:30 5.87 13.33 90 8.57 49.1 50.9 0.86 200.0
2023-03-03 00:00 6.17 11.76 79 8.42 49.1 50.4 0.89 197.0
2023-03-02 23:30 5.91 13.33 85 8.36 49.1 50.5 0.84 198.0
2023-03-02 23:00 6.00 11.76 85 8.38 49.5 50.5 0.82 198.0
2023-03-02 22:30 5.91 12.50 83 8.13 49.8 51.1 0.74 195.0
2023-03-02 22:00 6.10 11.76 84 8.10 50.0 51.3 0.86 193.0
2023-03-02 21:30 6.07 12.50 88 8.23 50.0 51.4 0.91 190.0
2023-03-02 21:00 6.27 12.50 85 8.04 49.5 52.2 0.89 186.0
2023-03-02 20:30 5.87 11.11 76 7.89 49.1 51.4 0.91 176.0
2023-03-02 20:00 6.30 13.33 85 8.07 49.1 51.1 0.93 175.0
2023-03-02 19:30 6.46 11.76 80 7.83 48.9 51.4 1.05 167.0
2023-03-02 19:00 6.40 12.50 77 7.76 48.9 51.4 0.99 170.0
2023-03-02 18:30 6.59 11.11 70 7.76 48.9 50.2 1.11 173.0
2023-03-02 18:00 6.46 11.76 78 7.53 48.9 50.4 0.99 166.0
2023-03-02 17:30 7.09 11.76 80 7.52 48.7 50.7 0.99 164.0
2023-03-02 17:00 7.12 11.76 78 7.77 48.7 51.8 0.93 159.0
2023-03-02 16:30 6.86 7.69 157 7.22 48.7 51.6 0.82 158.0
2023-03-02 16:00 7.02 12.50 73 7.36 48.7 50.9 0.97 158.0
2023-03-02 15:30 6.69 11.11 72 7.19 48.7 51.6 0.95 153.0
2023-03-02 15:00 7.02 11.76 71 7.75 48.7 51.8 0.93 148.0
2023-03-02 14:30 6.89 11.11 78 7.66 48.7 51.6 0.95 145.0
2023-03-02 14:00 7.02 11.11 68 7.51 48.7 53.2 0.87 138.0
2023-03-02 13:30 7.22 11.11 74 7.47 48.7 53.6 0.86 137.0
2023-03-02 13:00 7.09 11.76 74 7.17 48.7 53.6 0.89 136.0
2023-03-02 12:30 7.02 7.14 157 7.18 48.7 54.0 0.82 134.0
2023-03-02 12:00 7.02 12.50 73 7.03 48.9 54.7 0.60 131.0
2023-03-02 11:30 6.73 11.11 70 7.10 48.7 53.2 0.56 138.0
2023-03-02 11:00 7.12 11.76 74 7.22 48.7 53.6 0.54 133.0
2023-03-02 10:30 7.28 11.11 73 7.44 48.9 53.8 0.51 134.0
2023-03-02 10:00 7.51 11.76 69 7.40 48.9 53.2 0.52 136.0
2023-03-02 09:30 7.61 11.11 68 7.38 49.1 54.0 0.47 144.0
2023-03-02 09:00 7.41 11.76 72 7.29 48.9 53.8 0.51 149.0
2023-03-02 08:30 7.32 11.11 61 7.47 48.9 53.1 0.39 151.0
2023-03-02 08:00 7.48 11.11 56 7.09 48.7 52.5 0.41 161.0
2023-03-02 07:30 7.45 11.76 63 7.24 48.7 52.5 0.49 176.0
2023-03-02 07:00 7.35 11.76 61 7.42 48.7 53.1 0.47 184.0
2023-03-02 06:30 6.89 10.53 56 7.47 48.7 53.1 0.49 184.0
2023-03-02 06:00 6.33 12.50 69 7.46 48.7 52.5 0.54 189.0
2023-03-02 05:30 6.73 13.33 74 7.88 48.6 52.7 0.58 200.0
2023-03-02 05:00 7.02 10.53 61 8.12 48.6 52.9 0.60 214.0
2023-03-02 04:30 6.17 10.53 64 7.66 48.7 53.2 0.49 207.0
2023-03-02 04:00 6.04 10.53 56 7.46 48.7 55.0 0.70 207.0
2023-03-02 03:30 5.91 12.50 72 7.80 48.7 53.6 0.62 204.0
2023-03-02 03:00 6.40 11.76 74 7.88 48.9 54.0 0.70 197.0
2023-03-02 02:30 6.63 11.11 64 8.16 48.9 53.6 0.66 196.0
2023-03-02 02:00 6.36 11.11 63 8.12 48.9 53.8 0.68 188.0
2023-03-02 01:30 6.20 11.76 69 7.96 49.1 53.6 0.68 186.0
2023-03-02 01:00 6.30 12.50 70 8.25 49.1 54.0 0.68 185.0
2023-03-02 00:30 7.05 11.76 75 8.62 49.1 53.6 0.66 185.0
2023-03-02 00:00 7.64 12.50 75 8.98 49.1 53.8 0.64 184.0
2023-03-01 23:30 6.43 12.50 73 8.32 49.1 54.5 0.62 184.0
2023-03-01 23:00 6.96 11.76 70 8.47 48.9 54.5 0.68 184.0
2023-03-01 22:30 6.99 11.76 65 8.48 49.1 54.3 0.70 195.0
2023-03-01 22:00 6.76 12.50 69 8.59 49.3 54.5 0.72 195.0
2023-03-01 21:30 6.53 11.76 67 8.29 49.5 54.5 0.76 200.0
2023-03-01 21:00 6.40 11.76 66 8.16 49.5 54.5 0.80 200.0
2023-03-01 20:30 6.46 11.76 62 8.05 49.5 54.7 0.80 198.0
2023-03-01 20:00 6.79 11.76 66 7.97 49.8 52.7 0.93 201.0
2023-03-01 19:30 6.46 11.76 66 7.91 49.5 52.3 0.89 194.0
2023-03-01 19:00 7.12 11.11 62 8.09 49.5 52.2 0.86 197.0
2023-03-01 18:30 7.45 10.53 62 8.09 49.5 51.4 0.99 201.0
2023-03-01 18:00 7.19 9.88 65 7.86 49.1 51.4 0.97 198.0
2023-03-01 17:30 7.19 10.53 63 7.81 49.5 51.1 1.11 200.0
2023-03-01 17:00 6.92 11.11 63 7.37 49.3 51.1 1.13 196.0
2023-03-01 16:30 7.38 11.11 64 7.34 49.3 50.9 1.07 195.0
2023-03-01 16:00 6.79 10.53 71 7.10 49.3 50.7 1.13 195.0
2023-03-01 15:30 7.41 10.53 65 7.32 49.3 50.9 1.19 195.0
2023-03-01 15:00 7.51 9.88 62 7.12 49.3 51.1 1.07 189.0
2023-03-01 14:30 7.25 11.11 74 7.08 49.3 51.1 1.05 187.0
2023-03-01 14:00 7.87 11.11 66 7.19 49.3 51.4 0.97 188.0
2023-03-01 13:30 8.14 9.88 63 7.13 49.3 51.6 0.97 185.0
2023-03-01 13:00 7.64 10.53 65 6.77 49.3 51.3 0.99 181.0
2023-03-01 12:30 8.01 10.53 60 6.99 49.3 50.9 0.97 184.0
2023-03-01 12:00 8.69 9.88 62 6.87 49.5 50.2 0.97 180.0
2023-03-01 11:30 8.89 11.11 63 7.00 49.5 50.0 0.93 183.0
2023-03-01 11:00 8.46 9.88 62 6.82 49.5 49.8 0.91 185.0
2023-03-01 10:30 9.15 9.09 59 6.84 49.5 49.8 0.99 191.0
2023-03-01 10:00 9.45 9.09 53 6.93 49.5 49.8 0.99 187.0
2023-03-01 09:30 9.09 9.88 64 6.60 49.5 49.8 0.91 195.0
2023-03-01 09:00 8.86 9.88 61 6.37 49.5 49.8 1.01 194.0
2023-03-01 08:30 9.51 10.53 63 6.79 49.5 49.6 1.09 204.0
2023-03-01 08:00 9.61 9.09 61 6.57 49.6 49.8 1.03 200.0
2023-03-01 07:30 10.07 7.69 46 6.44 49.6 50.2 1.11 201.0
2023-03-01 07:00 10.17 10.53 58 6.55 49.8 50.2 1.07 203.0
2023-03-01 06:30 9.84 7.69 49 6.40 50.0 50.2 1.03 206.0
2023-03-01 06:00 8.83 9.88 48 5.98 50.0 50.5 1.15 201.0
2023-03-01 05:30 8.76 9.88 51 6.30 50.0 50.9 1.05 202.0
2023-03-01 05:00 8.79 9.88 48 6.11 50.0 50.7 1.11 198.0
2023-03-01 04:30 8.27 10.53 58 6.17 50.0 50.5 1.09 192.0
2023-03-01 04:00 7.68 9.88 57 6.13 50.0 50.5 1.11 205.0
2023-03-01 03:30 7.35 9.88 58 5.97 50.0 50.9 1.09 192.0
2023-03-01 03:00 6.20 10.53 57 5.87 50.0 51.1 1.11 198.0
2023-03-01 02:30 5.77 9.09 49 6.51 50.0 51.1 1.15 187.0
2023-03-01 02:00 5.38 9.09 62 6.82 49.6 49.1 1.09 182.0
2023-03-01 01:30 4.92 9.09 58 6.79 49.8 48.9 1.03 187.0
2023-03-01 01:00 5.18 8.33 74 6.85 49.6 48.9 0.97 186.0
2023-03-01 00:30 5.35 8.33 99 6.74 49.8 48.7 0.86 185.0
2023-03-01 00:00 5.58 8.33 109 6.69 49.6 48.6 0.87 185.0